Observation data for Crowell on 08/20/2019      Previous  Date       Current Mesonet Observations  Soil Data  Daily Summary Page  Observations in Plain Language
KCR1 200500Z 16008KT 31/18 A2998 RMK A01 T03100176  RH  045%=      5-min Rain = 0
KCR1 200501Z 16008KT 31/18 A2998 RMK A01 T03110177  RH  045%=      5-min Rain = 0
KCR1 200502Z 16008KT 31/18 A2998 RMK A01 T03100177  RH  045%=      5-min Rain = 0
KCR1 200503Z 16008KT 31/18 A2998 RMK A01 T03100177  RH  045%=      5-min Rain = 0
KCR1 200504Z 16008KT 31/18 A2998 RMK A01 T03100177  RH  045%=      5-min Rain = 0
KCR1 200505Z 16009KT 31/18 A2998 RMK A01 T03110177  RH  045%=      5-min Rain = 0
KCR1 200506Z 16008KT 31/18 A2998 RMK A01 T03110178  RH  045%=      5-min Rain = 0
KCR1 200507Z 16009KT 31/18 A2998 RMK A01 T03110178  RH  045%=      5-min Rain = 0
KCR1 200508Z 15008KT 31/18 A2998 RMK A01 T03110178  RH  045%=      5-min Rain = 0
KCR1 200509Z 15008KT 31/18 A2998 RMK A01 T03110178  RH  045%=      5-min Rain = 0
KCR1 200510Z 15007KT 31/18 A2998 RMK A01 T03110178  RH  045%=      5-min Rain = 0
KCR1 200511Z 15008KT 31/18 A2998 RMK A01 T03100178  RH  045%=      5-min Rain = 0
KCR1 200512Z 14007KT 31/18 A2998 RMK A01 T03100178  RH  045%=      5-min Rain = 0
KCR1 200513Z 14008KT 31/18 A2998 RMK A01 T03100178  RH  045%=      5-min Rain = 0
KCR1 200514Z 15007KT 31/18 A2998 RMK A01 T03100178  RH  045%=      5-min Rain = 0
KCR1 200515Z 15007KT 31/18 A2998 RMK A01 T03100178  RH  045%=      5-min Rain = 0
KCR1 200516Z 14008KT 31/18 A2998 RMK A01 T03090178  RH  045%=      5-min Rain = 0
KCR1 200517Z 14007KT 31/18 A2998 RMK A01 T03080177  RH  046%=      5-min Rain = 0
KCR1 200518Z 14007KT 31/18 A2998 RMK A01 T03070178  RH  046%=      5-min Rain = 0
KCR1 200519Z 14007KT 31/18 A2998 RMK A01 T03060178  RH  046%=      5-min Rain = 0
KCR1 200520Z 14007KT 31/18 A2998 RMK A01 T03050178  RH  047%=      5-min Rain = 0
KCR1 200521Z 14007KT 30/18 A2998 RMK A01 T03040178  RH  047%=      5-min Rain = 0
KCR1 200522Z 14007KT 30/18 A2998 RMK A01 T03030178  RH  047%=      5-min Rain = 0
KCR1 200523Z 14007KT 30/18 A2998 RMK A01 T03020178  RH  047%=      5-min Rain = 0
KCR1 200524Z 14008KT 30/18 A2998 RMK A01 T03020179  RH  048%=      5-min Rain = 0
KCR1 200525Z 15007KT 30/18 A2998 RMK A01 T03010179  RH  048%=      5-min Rain = 0
KCR1 200526Z 15008KT 30/18 A2998 RMK A01 T03010179  RH  048%=      5-min Rain = 0
KCR1 200527Z 14008KT 30/18 A2998 RMK A01 T03020179  RH  048%=      5-min Rain = 0
KCR1 200528Z 15008KT 30/18 A2998 RMK A01 T03020179  RH  048%=      5-min Rain = 0
KCR1 200529Z 15008KT 30/18 A2998 RMK A01 T03030180  RH  048%=      5-min Rain = 0
KCR1 200530Z 15008KT 30/18 A2998 RMK A01 T03030179  RH  048%=      5-min Rain = 0
KCR1 200531Z 15009KT 30/18 A2998 RMK A01 T03030179  RH  048%=      5-min Rain = 0
KCR1 200532Z 15009KT 30/18 A2998 RMK A01 T03040179  RH  047%=      5-min Rain = 0
KCR1 200533Z 15008KT 31/18 A2998 RMK A01 T03050179  RH  047%=      5-min Rain = 0
KCR1 200534Z 15008KT 31/18 A2998 RMK A01 T03050179  RH  047%=      5-min Rain = 0
KCR1 200535Z 15008KT 31/18 A2998 RMK A01 T03050179  RH  047%=      5-min Rain = 0
KCR1 200536Z 15008KT 30/18 A2998 RMK A01 T03040179  RH  047%=      5-min Rain = 0
KCR1 200537Z 15007KT 30/18 A2998 RMK A01 T03040180  RH  047%=      5-min Rain = 0
KCR1 200538Z 15009KT 30/18 A2998 RMK A01 T03030179  RH  047%=      5-min Rain = 0
KCR1 200539Z 15008KT 30/18 A2999 RMK A01 T03030179  RH  047%=      5-min Rain = 0
KCR1 200540Z 15008KT 30/18 A2999 RMK A01 T03030179  RH  047%=      5-min Rain = 0
KCR1 200541Z 15008KT 30/18 A2999 RMK A01 T03030179  RH  047%=      5-min Rain = 0
KCR1 200542Z 15008KT 30/18 A2999 RMK A01 T03030179  RH  047%=      5-min Rain = 0
KCR1 200543Z 15009KT 30/18 A2999 RMK A01 T03030179  RH  047%=      5-min Rain = 0
KCR1 200544Z 15008KT 30/18 A2999 RMK A01 T03030179  RH  047%=      5-min Rain = 0
KCR1 200545Z 16008KT 30/18 A2999 RMK A01 T03040179  RH  047%=      5-min Rain = 0
KCR1 200546Z 15008KT 30/18 A2999 RMK A01 T03040180  RH  047%=      5-min Rain = 0
KCR1 200547Z 15008KT 30/18 A2999 RMK A01 T03040179  RH  047%=      5-min Rain = 0
KCR1 200548Z 15007KT 31/18 A2999 RMK A01 T03050179  RH  047%=      5-min Rain = 0
KCR1 200549Z 15008KT 31/18 A2999 RMK A01 T03050180  RH  047%=      5-min Rain = 0
KCR1 200550Z 16007KT 30/18 A2999 RMK A01 T03040179  RH  047%=      5-min Rain = 0
KCR1 200551Z 16008KT 30/18 A2999 RMK A01 T03040179  RH  047%=      5-min Rain = 0
KCR1 200552Z 15009KT 30/18 A2999 RMK A01 T03040179  RH  047%=      5-min Rain = 0
KCR1 200553Z 15008KT 30/18 A2999 RMK A01 T03040179  RH  047%=      5-min Rain = 0
KCR1 200554Z 15007KT 30/18 A2999 RMK A01 T03040179  RH  047%=      5-min Rain = 0
KCR1 200555Z 16008KT 30/18 A2999 RMK A01 T03040179  RH  047%=      5-min Rain = 0
KCR1 200556Z 16008KT 30/18 A2999 RMK A01 T03040179  RH  047%=      5-min Rain = 0
KCR1 200557Z 16008KT 30/18 A2999 RMK A01 T03040179  RH  047%=      5-min Rain = 0
KCR1 200558Z 16009KT 30/18 A2999 RMK A01 T03040179  RH  047%=      5-min Rain = 0
KCR1 200559Z 16009KT 31/18 A2999 RMK A01 T03050180  RH  047%=      5-min Rain = 0
KCR1 200600Z 16008KT 31/18 A2999 RMK A01 T03060180  RH  047%=      5-min Rain = 0
KCR1 200601Z 16008KT 31/18 A2999 RMK A01 T03070180  RH  047%=      5-min Rain = 0
KCR1 200602Z 17009KT 31/18 A2999 RMK A01 T03070179  RH  047%=      5-min Rain = 0
KCR1 200603Z 16009KT 31/18 A2999 RMK A01 T03070180  RH  047%=      5-min Rain = 0
KCR1 200604Z 16010KT 31/18 A2999 RMK A01 T03070179  RH  047%=      5-min Rain = 0
KCR1 200605Z 17010KT 31/18 A2999 RMK A01 T03070179  RH  047%=      5-min Rain = 0
KCR1 200606Z 16011KT 31/18 A2999 RMK A01 T03080180  RH  046%=      5-min Rain = 0
KCR1 200607Z 16010KT 31/18 A2999 RMK A01 T03080180  RH  046%=      5-min Rain = 0
KCR1 200608Z 16011KT 31/18 A2999 RMK A01 T03080180  RH  046%=      5-min Rain = 0
KCR1 200609Z 16011KT 31/18 A2999 RMK A01 T03090180  RH  046%=      5-min Rain = 0
KCR1 200610Z 16010KT 31/18 A2999 RMK A01 T03090180  RH  046%=      5-min Rain = 0
KCR1 200611Z 16011KT 31/18 A2999 RMK A01 T03090180  RH  046%=      5-min Rain = 0
KCR1 200612Z 17011KT 31/18 A2999 RMK A01 T03090180  RH  046%=      5-min Rain = 0
KCR1 200613Z 16010KT 31/18 A2999 RMK A01 T03090180  RH  046%=      5-min Rain = 0
KCR1 200614Z 16011KT 31/18 A2999 RMK A01 T03090180  RH  046%=      5-min Rain = 0
KCR1 200615Z 16010KT 31/18 A2999 RMK A01 T03090180  RH  046%=      5-min Rain = 0
KCR1 200616Z 16010KT 31/18 A2999 RMK A01 T03090180  RH  046%=      5-min Rain = 0
KCR1 200617Z 16009KT 31/18 A2999 RMK A01 T03080180  RH  046%=      5-min Rain = 0
KCR1 200618Z 16009KT 31/18 A2999 RMK A01 T03080180  RH  046%=      5-min Rain = 0
KCR1 200619Z 16009KT 31/18 A2999 RMK A01 T03080180  RH  046%=      5-min Rain = 0
KCR1 200620Z 16009KT 31/18 A2999 RMK A01 T03070180  RH  047%=      5-min Rain = 0
KCR1 200621Z 17009KT 31/18 A2999 RMK A01 T03070180  RH  047%=      5-min Rain = 0
KCR1 200622Z 17009KT 31/18 A2999 RMK A01 T03070180  RH  047%=      5-min Rain = 0
KCR1 200623Z 17009KT 31/18 A2999 RMK A01 T03070180  RH  047%=      5-min Rain = 0
KCR1 200624Z 16010KT 31/18 A2999 RMK A01 T03060180  RH  047%=      5-min Rain = 0
KCR1 200625Z 17009KT 31/18 A2999 RMK A01 T03060179  RH  047%=      5-min Rain = 0
KCR1 200626Z 17010KT 31/18 A2999 RMK A01 T03060180  RH  047%=      5-min Rain = 0
KCR1 200627Z 17010KT 31/18 A2999 RMK A01 T03060180  RH  047%=      5-min Rain = 0
KCR1 200628Z 17011KT 31/18 A2999 RMK A01 T03070180  RH  047%=      5-min Rain = 0
KCR1 200629Z 17010KT 31/18 A2999 RMK A01 T03070180  RH  047%=      5-min Rain = 0
KCR1 200630Z 17012KT 31/18 A2999 RMK A01 T03070180  RH  047%=      5-min Rain = 0
KCR1 200631Z 17010KT 31/18 A2999 RMK A01 T03070180  RH  047%=      5-min Rain = 0
KCR1 200632Z 16011KT 31/18 A2999 RMK A01 T03070180  RH  046%=      5-min Rain = 0
KCR1 200633Z 17011KT 31/18 A2999 RMK A01 T03070179  RH  046%=      5-min Rain = 0
KCR1 200634Z 17009KT 31/18 A2999 RMK A01 T03070180  RH  047%=      5-min Rain = 0
KCR1 200635Z 17011KT 31/18 A2999 RMK A01 T03070180  RH  047%=      5-min Rain = 0
KCR1 200636Z 17010KT 31/18 A2999 RMK A01 T03070180  RH  047%=      5-min Rain = 0
KCR1 200637Z 17010KT 31/18 A2999 RMK A01 T03070180  RH  047%=      5-min Rain = 0
KCR1 200638Z 17009KT 31/18 A2999 RMK A01 T03070180  RH  047%=      5-min Rain = 0
KCR1 200639Z 17010KT 31/18 A2999 RMK A01 T03060180  RH  047%=      5-min Rain = 0
KCR1 200640Z 16010KT 31/18 A2999 RMK A01 T03060180  RH  047%=      5-min Rain = 0
KCR1 200641Z 16009KT 31/18 A2999 RMK A01 T03060180  RH  047%=      5-min Rain = 0
KCR1 200642Z 16010KT 31/18 A2999 RMK A01 T03050180  RH  047%=      5-min Rain = 0
KCR1 200643Z 17010KT 31/18 A2999 RMK A01 T03050180  RH  047%=      5-min Rain = 0
KCR1 200644Z 16010KT 31/18 A2999 RMK A01 T03050180  RH  047%=      5-min Rain = 0
KCR1 200645Z 16010KT 31/18 A2999 RMK A01 T03050180  RH  047%=      5-min Rain = 0
KCR1 200646Z 16010KT 31/18 A2999 RMK A01 T03050180  RH  047%=      5-min Rain = 0
KCR1 200647Z 16011KT 31/18 A2999 RMK A01 T03050180  RH  047%=      5-min Rain = 0
KCR1 200648Z 16010KT 31/18 A2999 RMK A01 T03050180  RH  047%=      5-min Rain = 0
KCR1 200649Z 16010KT 31/18 A2999 RMK A01 T03050180  RH  047%=      5-min Rain = 0
KCR1 200650Z 16009KT 31/18 A2999 RMK A01 T03050180  RH  047%=      5-min Rain = 0
KCR1 200651Z 16009KT 31/18 A2999 RMK A01 T03050180  RH  047%=      5-min Rain = 0
KCR1 200652Z 16009KT 31/18 A2999 RMK A01 T03050180  RH  047%=      5-min Rain = 0
KCR1 200653Z 16011KT 30/18 A2999 RMK A01 T03040180  RH  047%=      5-min Rain = 0
KCR1 200654Z 16010KT 31/18 A2999 RMK A01 T03050180  RH  047%=      5-min Rain = 0
KCR1 200655Z 16009KT 31/18 A2999 RMK A01 T03050180  RH  047%=      5-min Rain = 0
KCR1 200656Z 16010KT 30/18 A2999 RMK A01 T03040180  RH  047%=      5-min Rain = 0
KCR1 200657Z 16009KT 30/18 A2999 RMK A01 T03040180  RH  047%=      5-min Rain = 0
KCR1 200658Z 16011KT 30/18 A2999 RMK A01 T03040180  RH  047%=      5-min Rain = 0
KCR1 200659Z 16011KT 30/18 A2999 RMK A01 T03040180  RH  047%=      5-min Rain = 0
KCR1 200700Z 16010KT 30/18 A2999 RMK A01 T03040180  RH  047%=      5-min Rain = 0
KCR1 200701Z 17008KT 30/18 A2999 RMK A01 T03040180  RH  048%=      5-min Rain = 0
KCR1 200702Z 17009KT 30/18 A2999 RMK A01 T03030180  RH  048%=      5-min Rain = 0
KCR1 200703Z 16009KT 30/18 A2999 RMK A01 T03020180  RH  048%=      5-min Rain = 0
KCR1 200704Z 17010KT 30/18 A2999 RMK A01 T03020180  RH  048%=      5-min Rain = 0
KCR1 200705Z 17009KT 30/18 A2999 RMK A01 T03020180  RH  048%=      5-min Rain = 0
KCR1 200706Z 17010KT 30/18 A2999 RMK A01 T03020180  RH  048%=      5-min Rain = 0
KCR1 200707Z 17010KT 30/18 A2999 RMK A01 T03020180  RH  048%=      5-min Rain = 0
KCR1 200708Z 17009KT 30/18 A2999 RMK A01 T03020180  RH  048%=      5-min Rain = 0
KCR1 200709Z 17009KT 30/18 A2999 RMK A01 T03030180  RH  048%=      5-min Rain = 0
KCR1 200710Z 17010KT 30/18 A2999 RMK A01 T03030180  RH  048%=      5-min Rain = 0
KCR1 200711Z 17010KT 30/18 A2999 RMK A01 T03030180  RH  048%=      5-min Rain = 0
KCR1 200712Z 17010KT 30/18 A2999 RMK A01 T03030180  RH  048%=      5-min Rain = 0
KCR1 200713Z 17008KT 30/18 A2999 RMK A01 T03030180  RH  048%=      5-min Rain = 0
KCR1 200714Z 17008KT 30/18 A2999 RMK A01 T03020180  RH  048%=      5-min Rain = 0
KCR1 200715Z 17010KT 30/18 A2999 RMK A01 T03020180  RH  048%=      5-min Rain = 0
KCR1 200716Z 17009KT 30/18 A2999 RMK A01 T03020180  RH  048%=      5-min Rain = 0
KCR1 200717Z 17010KT 30/18 A2999 RMK A01 T03010180  RH  048%=      5-min Rain = 0
KCR1 200718Z 17009KT 30/18 A2999 RMK A01 T03010180  RH  048%=      5-min Rain = 0
KCR1 200719Z 17009KT 30/18 A2999 RMK A01 T03010180  RH  048%=      5-min Rain = 0
KCR1 200720Z 17008KT 30/18 A2999 RMK A01 T03010180  RH  048%=      5-min Rain = 0
KCR1 200721Z 17009KT 30/18 A2999 RMK A01 T03010180  RH  048%=      5-min Rain = 0
KCR1 200722Z 17007KT 30/18 A2999 RMK A01 T03010180  RH  048%=      5-min Rain = 0
KCR1 200723Z 17008KT 30/18 A2999 RMK A01 T03000180  RH  048%=      5-min Rain = 0
KCR1 200724Z 17009KT 30/18 A2999 RMK A01 T03000180  RH  049%=      5-min Rain = 0
KCR1 200725Z 17008KT 30/18 A2999 RMK A01 T03000180  RH  049%=      5-min Rain = 0
KCR1 200726Z 17008KT 30/18 A2999 RMK A01 T03000180  RH  049%=      5-min Rain = 0
KCR1 200727Z 17009KT 30/18 A2999 RMK A01 T02990180  RH  049%=      5-min Rain = 0
KCR1 200728Z 17010KT 30/18 A2999 RMK A01 T02990180  RH  049%=      5-min Rain = 0
KCR1 200729Z 17009KT 30/18 A2999 RMK A01 T02990180  RH  049%=      5-min Rain = 0
KCR1 200730Z 17009KT 30/18 A2999 RMK A01 T02990180  RH  049%=      5-min Rain = 0
KCR1 200731Z 17010KT 30/18 A2999 RMK A01 T03000180  RH  049%=      5-min Rain = 0
KCR1 200732Z 17008KT 30/18 A2999 RMK A01 T03000180  RH  049%=      5-min Rain = 0
KCR1 200733Z 17007KT 30/18 A2999 RMK A01 T03000180  RH  049%=      5-min Rain = 0
KCR1 200734Z 17008KT 30/18 A2999 RMK A01 T02980180  RH  049%=      5-min Rain = 0
KCR1 200735Z 17008KT 30/18 A2999 RMK A01 T02980180  RH  049%=      5-min Rain = 0
KCR1 200736Z 17009KT 30/18 A2999 RMK A01 T02980180  RH  049%=      5-min Rain = 0
KCR1 200737Z 17009KT 30/18 A2999 RMK A01 T02980180  RH  049%=      5-min Rain = 0
KCR1 200738Z 17008KT 30/18 A2999 RMK A01 T02980180  RH  049%=      5-min Rain = 0
KCR1 200739Z 17008KT 30/18 A2999 RMK A01 T02980180  RH  049%=      5-min Rain = 0
KCR1 200740Z 17007KT 30/18 A2999 RMK A01 T02970180  RH  049%=      5-min Rain = 0
KCR1 200741Z 17008KT 30/18 A2999 RMK A01 T02970180  RH  050%=      5-min Rain = 0
KCR1 200742Z 18008KT 30/18 A2999 RMK A01 T02960180  RH  050%=      5-min Rain = 0
KCR1 200743Z 17008KT 30/18 A2999 RMK A01 T02960180  RH  050%=      5-min Rain = 0
KCR1 200744Z 17009KT 30/18 A2999 RMK A01 T02960180  RH  050%=      5-min Rain = 0
KCR1 200745Z 17008KT 30/18 A2999 RMK A01 T02960180  RH  050%=      5-min Rain = 0
KCR1 200746Z 17008KT 30/18 A2999 RMK A01 T02960180  RH  050%=      5-min Rain = 0
KCR1 200747Z 17009KT 30/18 A2999 RMK A01 T02950180  RH  050%=      5-min Rain = 0
KCR1 200748Z 17009KT 30/18 A2999 RMK A01 T02950180  RH  050%=      5-min Rain = 0
KCR1 200749Z 17007KT 30/18 A2998 RMK A01 T02950180  RH  050%=      5-min Rain = 0
KCR1 200750Z 17008KT 30/18 A2998 RMK A01 T02950180  RH  050%=      5-min Rain = 0
KCR1 200751Z 18009KT 29/18 A2998 RMK A01 T02940180  RH  050%=      5-min Rain = 0
KCR1 200752Z 18008KT 30/18 A2998 RMK A01 T02950180  RH  050%=      5-min Rain = 0
KCR1 200753Z 18008KT 29/18 A2998 RMK A01 T02940180  RH  050%=      5-min Rain = 0
KCR1 200754Z 18008KT 29/18 A2998 RMK A01 T02940179  RH  050%=      5-min Rain = 0
KCR1 200755Z 18009KT 29/18 A2998 RMK A01 T02940180  RH  050%=      5-min Rain = 0
KCR1 200756Z 18008KT 29/18 A2998 RMK A01 T02930180  RH  051%=      5-min Rain = 0
KCR1 200757Z 18007KT 29/18 A2998 RMK A01 T02920180  RH  051%=      5-min Rain = 0
KCR1 200758Z 18008KT 29/18 A2998 RMK A01 T02920180  RH  051%=      5-min Rain = 0
KCR1 200759Z 18008KT 29/18 A2998 RMK A01 T02910180  RH  051%=      5-min Rain = 0
KCR1 200800Z 18008KT 29/18 A2998 RMK A01 T02910180  RH  051%=      5-min Rain = 0
KCR1 200801Z 18008KT 29/18 A2998 RMK A01 T02910180  RH  051%=      5-min Rain = 0
KCR1 200802Z 18008KT 29/18 A2998 RMK A01 T02920180  RH  051%=      5-min Rain = 0
KCR1 200803Z 18009KT 29/18 A2998 RMK A01 T02920179  RH  051%=      5-min Rain = 0
KCR1 200804Z 18008KT 29/18 A2999 RMK A01 T02920180  RH  051%=      5-min Rain = 0
KCR1 200805Z 18009KT 29/18 A2999 RMK A01 T02920179  RH  051%=      5-min Rain = 0
KCR1 200806Z 18008KT 29/18 A2999 RMK A01 T02920180  RH  051%=      5-min Rain = 0
KCR1 200807Z 18008KT 29/18 A2999 RMK A01 T02930180  RH  051%=      5-min Rain = 0
KCR1 200808Z 18009KT 29/18 A2999 RMK A01 T02920180  RH  051%=      5-min Rain = 0
KCR1 200809Z 18009KT 29/18 A2999 RMK A01 T02920179  RH  051%=      5-min Rain = 0
KCR1 200810Z 18009KT 29/18 A2999 RMK A01 T02930180  RH  051%=      5-min Rain = 0
KCR1 200811Z 18009KT 29/18 A2999 RMK A01 T02920179  RH  051%=      5-min Rain = 0
KCR1 200812Z 18008KT 29/18 A2999 RMK A01 T02920180  RH  051%=      5-min Rain = 0
KCR1 200813Z 18007KT 29/18 A2999 RMK A01 T02910179  RH  051%=      5-min Rain = 0
KCR1 200814Z 18008KT 29/18 A2999 RMK A01 T02910180  RH  051%=      5-min Rain = 0
KCR1 200815Z 18008KT 29/18 A2999 RMK A01 T02900179  RH  051%=      5-min Rain = 0
KCR1 200816Z 18008KT 29/18 A2999 RMK A01 T02900179  RH  051%=      5-min Rain = 0
KCR1 200817Z 17008KT 29/18 A2999 RMK A01 T02900179  RH  051%=      5-min Rain = 0
KCR1 200818Z 18007KT 29/18 A2999 RMK A01 T02900179  RH  051%=      5-min Rain = 0
KCR1 200819Z 18007KT 29/18 A2999 RMK A01 T02900179  RH  051%=      5-min Rain = 0
KCR1 200820Z 18007KT 29/18 A2998 RMK A01 T02890179  RH  051%=      5-min Rain = 0
KCR1 200821Z 18007KT 29/18 A2998 RMK A01 T02890179  RH  052%=      5-min Rain = 0
KCR1 200822Z 18008KT 29/18 A2998 RMK A01 T02890179  RH  052%=      5-min Rain = 0
KCR1 200823Z 18008KT 29/18 A2998 RMK A01 T02890179  RH  052%=      5-min Rain = 0
KCR1 200824Z 17008KT 29/18 A2998 RMK A01 T02880179  RH  052%=      5-min Rain = 0
KCR1 200825Z 17007KT 29/18 A2998 RMK A01 T02890179  RH  052%=      5-min Rain = 0
KCR1 200826Z 17007KT 29/18 A2998 RMK A01 T02890179  RH  052%=      5-min Rain = 0
KCR1 200827Z 18007KT 29/18 A2998 RMK A01 T02890179  RH  052%=      5-min Rain = 0
KCR1 200828Z 17007KT 29/18 A2998 RMK A01 T02880179  RH  052%=      5-min Rain = 0
KCR1 200829Z 17007KT 29/18 A2998 RMK A01 T02880179  RH  052%=      5-min Rain = 0
KCR1 200830Z 17007KT 29/18 A2999 RMK A01 T02870179  RH  052%=      5-min Rain = 0
KCR1 200831Z 17007KT 29/18 A2999 RMK A01 T02880179  RH  052%=      5-min Rain = 0
KCR1 200832Z 18006KT 29/18 A2999 RMK A01 T02880179  RH  052%=      5-min Rain = 0
KCR1 200833Z 18007KT 29/18 A2999 RMK A01 T02880179  RH  052%=      5-min Rain = 0
KCR1 200834Z 18007KT 29/18 A2999 RMK A01 T02880179  RH  052%=      5-min Rain = 0
KCR1 200835Z 18007KT 29/18 A2999 RMK A01 T02870179  RH  052%=      5-min Rain = 0
KCR1 200836Z 18006KT 29/18 A2999 RMK A01 T02870179  RH  052%=      5-min Rain = 0
KCR1 200837Z 18007KT 29/18 A2999 RMK A01 T02860179  RH  052%=      5-min Rain = 0
KCR1 200838Z 18007KT 29/18 A2999 RMK A01 T02860179  RH  052%=      5-min Rain = 0
KCR1 200839Z 18007KT 29/18 A2999 RMK A01 T02860179  RH  052%=      5-min Rain = 0
KCR1 200840Z 18007KT 29/18 A2999 RMK A01 T02860179  RH  052%=      5-min Rain = 0
KCR1 200841Z 18006KT 29/18 A2999 RMK A01 T02860179  RH  052%=      5-min Rain = 0
KCR1 200842Z 17007KT 29/18 A2999 RMK A01 T02860179  RH  052%=      5-min Rain = 0
KCR1 200843Z 18007KT 29/18 A2999 RMK A01 T02860179  RH  052%=      5-min Rain = 0
KCR1 200844Z 18006KT 29/18 A2999 RMK A01 T02860179  RH  052%=      5-min Rain = 0
KCR1 200845Z 18006KT 29/18 A2999 RMK A01 T02860179  RH  053%=      5-min Rain = 0
KCR1 200846Z 18006KT 29/18 A2999 RMK A01 T02850179  RH  053%=      5-min Rain = 0
KCR1 200847Z 18006KT 29/18 A2999 RMK A01 T02850179  RH  053%=      5-min Rain = 0
KCR1 200848Z 18007KT 28/18 A2999 RMK A01 T02840179  RH  053%=      5-min Rain = 0
KCR1 200849Z 18007KT 28/18 A2999 RMK A01 T02830179  RH  053%=      5-min Rain = 0
KCR1 200850Z 18006KT 28/18 A2999 RMK A01 T02830179  RH  053%=      5-min Rain = 0
KCR1 200851Z 18006KT 28/18 A2999 RMK A01 T02830179  RH  053%=      5-min Rain = 0
KCR1 200852Z 18007KT 28/18 A2999 RMK A01 T02830179  RH  053%=      5-min Rain = 0
KCR1 200853Z 18006KT 28/18 A2999 RMK A01 T02830179  RH  053%=      5-min Rain = 0
KCR1 200854Z 18006KT 28/18 A2999 RMK A01 T02830179  RH  053%=      5-min Rain = 0
KCR1 200855Z 18006KT 28/18 A2999 RMK A01 T02820179  RH  053%=      5-min Rain = 0
KCR1 200856Z 18006KT 28/18 A2999 RMK A01 T02820179  RH  054%=      5-min Rain = 0
KCR1 200857Z 18006KT 28/18 A2999 RMK A01 T02820179  RH  054%=      5-min Rain = 0
KCR1 200858Z 18006KT 28/18 A2999 RMK A01 T02810179  RH  054%=      5-min Rain = 0
KCR1 200859Z 18006KT 28/18 A2999 RMK A01 T02800179  RH  054%=      5-min Rain = 0
KCR1 200900Z 18006KT 28/18 A2999 RMK A01 T02800179  RH  054%=      5-min Rain = 0
KCR1 200901Z 18006KT 28/18 A2999 RMK A01 T02800179  RH  054%=      5-min Rain = 0
KCR1 200902Z 18006KT 28/18 A2999 RMK A01 T02790179  RH  054%=      5-min Rain = 0
KCR1 200903Z 18006KT 28/18 A2999 RMK A01 T02790178  RH  054%=      5-min Rain = 0
KCR1 200904Z 18005KT 28/18 A2999 RMK A01 T02790178  RH  054%=      5-min Rain = 0
KCR1 200905Z 18005KT 28/18 A2999 RMK A01 T02790179  RH  054%=      5-min Rain = 0
KCR1 200906Z 18006KT 28/18 A2999 RMK A01 T02780178  RH  055%=      5-min Rain = 0
KCR1 200907Z 18005KT 28/18 A2999 RMK A01 T02770178  RH  055%=      5-min Rain = 0
KCR1 200908Z 18006KT 28/18 A2999 RMK A01 T02770179  RH  055%=      5-min Rain = 0
KCR1 200909Z 18005KT 28/18 A2999 RMK A01 T02760178  RH  055%=      5-min Rain = 0
KCR1 200910Z 18005KT 28/18 A2999 RMK A01 T02760178  RH  055%=      5-min Rain = 0
KCR1 200911Z 18005KT 28/18 A2999 RMK A01 T02760178  RH  055%=      5-min Rain = 0
KCR1 200912Z 18005KT 28/18 A2999 RMK A01 T02760179  RH  055%=      5-min Rain = 0
KCR1 200913Z 18005KT 28/18 A2999 RMK A01 T02750178  RH  056%=      5-min Rain = 0
KCR1 200914Z 18006KT 28/18 A2999 RMK A01 T02750178  RH  056%=      5-min Rain = 0
KCR1 200915Z 18006KT 27/18 A2999 RMK A01 T02740178  RH  056%=      5-min Rain = 0
KCR1 200916Z 18006KT 27/18 A2999 RMK A01 T02740178  RH  056%=      5-min Rain = 0
KCR1 200917Z 18006KT 27/18 A2999 RMK A01 T02740178  RH  056%=      5-min Rain = 0
KCR1 200918Z 18006KT 27/18 A2999 RMK A01 T02740178  RH  056%=      5-min Rain = 0
KCR1 200919Z 18006KT 27/18 A2999 RMK A01 T02730178  RH  056%=      5-min Rain = 0
KCR1 200920Z 18005KT 27/18 A2999 RMK A01 T02730178  RH  056%=      5-min Rain = 0
KCR1 200921Z 18006KT 27/18 A2999 RMK A01 T02730178  RH  056%=      5-min Rain = 0
KCR1 200922Z 18006KT 27/18 A2999 RMK A01 T02720178  RH  056%=      5-min Rain = 0
KCR1 200923Z 18006KT 27/18 A2999 RMK A01 T02720178  RH  057%=      5-min Rain = 0
KCR1 200924Z 18006KT 27/18 A2999 RMK A01 T02720178  RH  057%=      5-min Rain = 0
KCR1 200925Z 18006KT 27/18 A2999 RMK A01 T02720178  RH  057%=      5-min Rain = 0
KCR1 200926Z 18006KT 27/18 A2999 RMK A01 T02720178  RH  057%=      5-min Rain = 0
KCR1 200927Z 18006KT 27/18 A2999 RMK A01 T02710178  RH  057%=      5-min Rain = 0
KCR1 200928Z 18006KT 27/18 A2999 RMK A01 T02710178  RH  057%=      5-min Rain = 0
KCR1 200929Z 18007KT 27/18 A2999 RMK A01 T02710178  RH  057%=      5-min Rain = 0
KCR1 200930Z 18006KT 27/18 A2999 RMK A01 T02710178  RH  057%=      5-min Rain = 0
KCR1 200931Z 18007KT 27/18 A2999 RMK A01 T02710178  RH  057%=      5-min Rain = 0
KCR1 200932Z 18006KT 27/18 A2999 RMK A01 T02700178  RH  057%=      5-min Rain = 0
KCR1 200933Z 18007KT 27/18 A2999 RMK A01 T02700178  RH  057%=      5-min Rain = 0
KCR1 200934Z 17007KT 27/18 A2999 RMK A01 T02700178  RH  057%=      5-min Rain = 0
KCR1 200935Z 18007KT 27/18 A2999 RMK A01 T02700178  RH  057%=      5-min Rain = 0
KCR1 200936Z 18007KT 27/18 A2999 RMK A01 T02690178  RH  057%=      5-min Rain = 0
KCR1 200937Z 17007KT 27/18 A2999 RMK A01 T02690178  RH  057%=      5-min Rain = 0
KCR1 200938Z 17007KT 27/18 A2999 RMK A01 T02690178  RH  057%=      5-min Rain = 0
KCR1 200939Z 17007KT 27/18 A2999 RMK A01 T02690178  RH  057%=      5-min Rain = 0
KCR1 200940Z 17007KT 27/18 A2999 RMK A01 T02690178  RH  058%=      5-min Rain = 0
KCR1 200941Z 17007KT 27/18 A2999 RMK A01 T02680178  RH  058%=      5-min Rain = 0
KCR1 200942Z 17007KT 27/18 A2999 RMK A01 T02680178  RH  058%=      5-min Rain = 0
KCR1 200943Z 17007KT 27/18 A2999 RMK A01 T02680178  RH  058%=      5-min Rain = 0
KCR1 200944Z 17007KT 27/18 A2999 RMK A01 T02690178  RH  058%=      5-min Rain = 0
KCR1 200945Z 17007KT 27/18 A2999 RMK A01 T02690178  RH  057%=      5-min Rain = 0
KCR1 200946Z 17007KT 27/18 A2999 RMK A01 T02690178  RH  057%=      5-min Rain = 0
KCR1 200947Z 17007KT 27/18 A2999 RMK A01 T02690178  RH  057%=      5-min Rain = 0
KCR1 200948Z 17007KT 27/18 A2999 RMK A01 T02690178  RH  058%=      5-min Rain = 0
KCR1 200949Z 17007KT 27/18 A2999 RMK A01 T02690178  RH  058%=      5-min Rain = 0
KCR1 200950Z 17007KT 27/18 A2999 RMK A01 T02680178  RH  058%=      5-min Rain = 0
KCR1 200951Z 17007KT 27/18 A2999 RMK A01 T02680178  RH  058%=      5-min Rain = 0
KCR1 200952Z 18006KT 27/18 A2999 RMK A01 T02680177  RH  058%=      5-min Rain = 0
KCR1 200953Z 18007KT 27/18 A2999 RMK A01 T02680178  RH  058%=      5-min Rain = 0
KCR1 200954Z 18007KT 27/18 A2999 RMK A01 T02680178  RH  058%=      5-min Rain = 0
KCR1 200955Z 17006KT 27/18 A2999 RMK A01 T02680177  RH  058%=      5-min Rain = 0
KCR1 200956Z 17006KT 27/18 A2999 RMK A01 T02680177  RH  058%=      5-min Rain = 0
KCR1 200957Z 17006KT 27/18 A2999 RMK A01 T02670177  RH  058%=      5-min Rain = 0
KCR1 200958Z 17006KT 27/18 A2999 RMK A01 T02670177  RH  058%=      5-min Rain = 0
KCR1 200959Z 17006KT 27/18 A2999 RMK A01 T02660177  RH  058%=      5-min Rain = 0
KCR1 201000Z 17006KT 27/18 A2999 RMK A01 T02660177  RH  058%=      5-min Rain = 0
KCR1 201001Z 17006KT 27/18 A2999 RMK A01 T02660177  RH  058%=      5-min Rain = 0
KCR1 201002Z 17006KT 27/18 A2999 RMK A01 T02660177  RH  058%=      5-min Rain = 0
KCR1 201003Z 18006KT 27/18 A2999 RMK A01 T02650177  RH  058%=      5-min Rain = 0
KCR1 201004Z 18006KT 27/18 A2999 RMK A01 T02650177  RH  058%=      5-min Rain = 0
KCR1 201005Z 18007KT 26/18 A2999 RMK A01 T02640177  RH  059%=      5-min Rain = 0
KCR1 201006Z 18007KT 26/18 A2999 RMK A01 T02640177  RH  059%=      5-min Rain = 0
KCR1 201007Z 18007KT 26/18 A2999 RMK A01 T02630177  RH  059%=      5-min Rain = 0
KCR1 201008Z 18007KT 26/18 A2999 RMK A01 T02630177  RH  059%=      5-min Rain = 0
KCR1 201009Z 18007KT 26/18 A2999 RMK A01 T02630177  RH  059%=      5-min Rain = 0
KCR1 201010Z 18007KT 26/18 A2999 RMK A01 T02620177  RH  059%=      5-min Rain = 0
KCR1 201011Z 18007KT 26/18 A2999 RMK A01 T02620177  RH  060%=      5-min Rain = 0
KCR1 201012Z 18007KT 26/18 A2999 RMK A01 T02610177  RH  060%=      5-min Rain = 0
KCR1 201013Z 18007KT 26/18 A2999 RMK A01 T02610177  RH  060%=      5-min Rain = 0
KCR1 201014Z 18007KT 26/18 A2999 RMK A01 T02600177  RH  060%=      5-min Rain = 0
KCR1 201015Z 18007KT 26/18 A2999 RMK A01 T02600177  RH  060%=      5-min Rain = 0
KCR1 201016Z 18007KT 26/18 A2999 RMK A01 T02600177  RH  060%=      5-min Rain = 0
KCR1 201017Z 18007KT 26/18 A2999 RMK A01 T02600177  RH  060%=      5-min Rain = 0
KCR1 201018Z 18007KT 26/18 A2999 RMK A01 T02600178  RH  060%=      5-min Rain = 0
KCR1 201019Z 18007KT 26/18 A2999 RMK A01 T02600177  RH  061%=      5-min Rain = 0
KCR1 201020Z 18007KT 26/18 A30 RMK A01 T02600178  RH  060%=      5-min Rain = 0
KCR1 201021Z 18007KT 26/18 A30 RMK A01 T02600177  RH  060%=      5-min Rain = 0
KCR1 201022Z 18007KT 26/18 A30 RMK A01 T02600177  RH  060%=      5-min Rain = 0
KCR1 201023Z 18007KT 26/18 A30 RMK A01 T02590177  RH  060%=      5-min Rain = 0
KCR1 201024Z 18007KT 26/18 A30 RMK A01 T02600178  RH  061%=      5-min Rain = 0
KCR1 201025Z 18007KT 26/18 A30 RMK A01 T02590178  RH  061%=      5-min Rain = 0
KCR1 201026Z 18007KT 26/18 A2999 RMK A01 T02590178  RH  061%=      5-min Rain = 0
KCR1 201027Z 18007KT 26/18 A2999 RMK A01 T02590177  RH  061%=      5-min Rain = 0
KCR1 201028Z 18007KT 26/18 A2999 RMK A01 T02590178  RH  061%=      5-min Rain = 0
KCR1 201029Z 18006KT 26/18 A2999 RMK A01 T02580177  RH  061%=      5-min Rain = 0
KCR1 201030Z 18006KT 26/18 A2999 RMK A01 T02590177  RH  061%=      5-min Rain = 0
KCR1 201031Z 18006KT 26/18 A2999 RMK A01 T02590177  RH  061%=      5-min Rain = 0
KCR1 201032Z 18006KT 26/18 A2999 RMK A01 T02590177  RH  061%=      5-min Rain = 0
KCR1 201033Z 18006KT 26/18 A2999 RMK A01 T02590177  RH  061%=      5-min Rain = 0
KCR1 201034Z 19006KT 26/18 A2999 RMK A01 T02580177  RH  061%=      5-min Rain = 0
KCR1 201035Z 19006KT 26/18 A2999 RMK A01 T02590177  RH  061%=      5-min Rain = 0
KCR1 201036Z 19006KT 26/18 A2999 RMK A01 T02590177  RH  061%=      5-min Rain = 0
KCR1 201037Z 19006KT 26/18 A2999 RMK A01 T02590177  RH  061%=      5-min Rain = 0
KCR1 201038Z 19006KT 26/18 A2999 RMK A01 T02600177  RH  060%=      5-min Rain = 0
KCR1 201039Z 19006KT 26/18 A2999 RMK A01 T02600177  RH  060%=      5-min Rain = 0
KCR1 201040Z 19006KT 26/18 A2999 RMK A01 T02600177  RH  060%=      5-min Rain = 0
KCR1 201041Z 19006KT 26/18 A2999 RMK A01 T02600177  RH  060%=      5-min Rain = 0
KCR1 201042Z 19006KT 26/18 A2999 RMK A01 T02600177  RH  060%=      5-min Rain = 0
KCR1 201043Z 19005KT 26/18 A2999 RMK A01 T02600177  RH  060%=      5-min Rain = 0
KCR1 201044Z 19006KT 26/18 A2999 RMK A01 T02600177  RH  060%=      5-min Rain = 0
KCR1 201045Z 19005KT 26/18 A30 RMK A01 T02590177  RH  060%=      5-min Rain = 0
KCR1 201046Z 19005KT 26/18 A30 RMK A01 T02600177  RH  060%=      5-min Rain = 0
KCR1 201047Z 20005KT 26/18 A30 RMK A01 T02590177  RH  060%=      5-min Rain = 0
KCR1 201048Z 20005KT 26/18 A30 RMK A01 T02600177  RH  060%=      5-min Rain = 0
KCR1 201049Z 20005KT 26/18 A30 RMK A01 T02600177  RH  060%=      5-min Rain = 0
KCR1 201050Z 19005KT 26/18 A30 RMK A01 T02600177  RH  060%=      5-min Rain = 0
KCR1 201051Z 19005KT 26/18 A30 RMK A01 T02590177  RH  060%=      5-min Rain = 0
KCR1 201052Z 19005KT 26/18 A30 RMK A01 T02590177  RH  060%=      5-min Rain = 0
KCR1 201053Z 18005KT 26/18 A30 RMK A01 T02580177  RH  061%=      5-min Rain = 0
KCR1 201054Z 18005KT 26/18 A30 RMK A01 T02570177  RH  061%=      5-min Rain = 0
KCR1 201055Z 18005KT 26/18 A30 RMK A01 T02560176  RH  061%=      5-min Rain = 0
KCR1 201056Z 18005KT 26/18 A30 RMK A01 T02550177  RH  062%=      5-min Rain = 0
KCR1 201057Z 18005KT 25/18 A30 RMK A01 T02540176  RH  062%=      5-min Rain = 0
KCR1 201058Z 18005KT 25/18 A30 RMK A01 T02530177  RH  062%=      5-min Rain = 0
KCR1 201059Z 18005KT 25/18 A30 RMK A01 T02530177  RH  063%=      5-min Rain = 0
KCR1 201100Z 18005KT 25/18 A30 RMK A01 T02520177  RH  063%=      5-min Rain = 0
KCR1 201101Z 18005KT 25/18 A30 RMK A01 T02520177  RH  063%=      5-min Rain = 0
KCR1 201102Z 17005KT 25/18 A30 RMK A01 T02510177  RH  063%=      5-min Rain = 0
KCR1 201103Z 17005KT 25/18 A30 RMK A01 T02510177  RH  064%=      5-min Rain = 0
KCR1 201104Z 17005KT 25/18 A30 RMK A01 T02500176  RH  064%=      5-min Rain = 0
KCR1 201105Z 17005KT 25/18 A30 RMK A01 T02500177  RH  064%=      5-min Rain = 0
KCR1 201106Z 17005KT 25/18 A30 RMK A01 T02490176  RH  064%=      5-min Rain = 0
KCR1 201107Z 17005KT 25/18 A30 RMK A01 T02490176  RH  064%=      5-min Rain = 0
KCR1 201108Z 17005KT 25/18 A30 RMK A01 T02490176  RH  064%=      5-min Rain = 0
KCR1 201109Z 17005KT 25/18 A30 RMK A01 T02490176  RH  064%=      5-min Rain = 0
KCR1 201110Z 17005KT 25/18 A30 RMK A01 T02490176  RH  064%=      5-min Rain = 0
KCR1 201111Z 17005KT 25/18 A30 RMK A01 T02490176  RH  064%=      5-min Rain = 0
KCR1 201112Z 17005KT 25/18 A30 RMK A01 T02490176  RH  064%=      5-min Rain = 0
KCR1 201113Z 17005KT 25/18 A30 RMK A01 T02490176  RH  064%=      5-min Rain = 0
KCR1 201114Z 17005KT 25/18 A30 RMK A01 T02490176  RH  064%=      5-min Rain = 0
KCR1 201115Z 17006KT 25/18 A30 RMK A01 T02480175  RH  064%=      5-min Rain = 0
KCR1 201116Z 17006KT 25/18 A30 RMK A01 T02480176  RH  064%=      5-min Rain = 0
KCR1 201117Z 18006KT 25/18 A30 RMK A01 T02480176  RH  064%=      5-min Rain = 0
KCR1 201118Z 18005KT 25/18 A30 RMK A01 T02480176  RH  064%=      5-min Rain = 0
KCR1 201119Z 18005KT 25/18 A30 RMK A01 T02480175  RH  064%=      5-min Rain = 0
KCR1 201120Z 19005KT 25/18 A30 RMK A01 T02480175  RH  064%=      5-min Rain = 0
KCR1 201121Z 19004KT 25/18 A30 RMK A01 T02480175  RH  064%=      5-min Rain = 0
KCR1 201122Z 20004KT 25/18 A30 RMK A01 T02480175  RH  064%=      5-min Rain = 0
KCR1 201123Z 20003KT 25/18 A30 RMK A01 T02480175  RH  064%=      5-min Rain = 0
KCR1 201124Z 21003KT 25/18 A30 RMK A01 T02490175  RH  063%=      5-min Rain = 0
KCR1 201125Z 19003KT 25/18 A30 RMK A01 T02500175  RH  063%=      5-min Rain = 0
KCR1 201126Z 19004KT 25/18 A30 RMK A01 T02500175  RH  063%=      5-min Rain = 0
KCR1 201127Z 19004KT 25/18 A30 RMK A01 T02510175  RH  063%=      5-min Rain = 0
KCR1 201128Z 19004KT 25/18 A30 RMK A01 T02510175  RH  063%=      5-min Rain = 0
KCR1 201129Z 19004KT 25/18 A30 RMK A01 T02520175  RH  063%=      5-min Rain = 0
KCR1 201130Z 18004KT 25/18 A30 RMK A01 T02510175  RH  063%=      5-min Rain = 0
KCR1 201131Z 18004KT 25/18 A3001 RMK A01 T02510175  RH  063%=      5-min Rain = 0
KCR1 201132Z 18003KT 25/18 A3001 RMK A01 T02510176  RH  063%=      5-min Rain = 0
KCR1 201133Z 18003KT 25/18 A3001 RMK A01 T02500175  RH  063%=      5-min Rain = 0
KCR1 201134Z 18003KT 25/18 A3001 RMK A01 T02490175  RH  064%=      5-min Rain = 0
KCR1 201135Z 18003KT 25/18 A3001 RMK A01 T02480175  RH  064%=      5-min Rain = 0
KCR1 201136Z 18003KT 25/18 A3001 RMK A01 T02480175  RH  064%=      5-min Rain = 0
KCR1 201137Z 18003KT 25/18 A3001 RMK A01 T02480175  RH  064%=      5-min Rain = 0
KCR1 201138Z 18003KT 25/18 A3001 RMK A01 T02480175  RH  064%=      5-min Rain = 0
KCR1 201139Z 18003KT 25/18 A3001 RMK A01 T02470175  RH  064%=      5-min Rain = 0
KCR1 201140Z 18002KT 25/18 A3001 RMK A01 T02470175  RH  064%=      5-min Rain = 0
KCR1 201141Z 18002KT 25/18 A3001 RMK A01 T02470175  RH  064%=      5-min Rain = 0
KCR1 201142Z 17002KT 25/18 A3001 RMK A01 T02460175  RH  064%=      5-min Rain = 0
KCR1 201143Z 17002KT 25/18 A3001 RMK A01 T02460175  RH  065%=      5-min Rain = 0
KCR1 201144Z 17002KT 25/18 A3001 RMK A01 T02460175  RH  065%=      5-min Rain = 0
KCR1 201145Z 16002KT 25/18 A3001 RMK A01 T02450175  RH  065%=      5-min Rain = 0
KCR1 201146Z 16002KT 25/18 A3001 RMK A01 T02450175  RH  065%=      5-min Rain = 0
KCR1 201147Z 16002KT 25/17 A3001 RMK A01 T02450174  RH  065%=      5-min Rain = 0
KCR1 201148Z 16002KT 25/17 A3001 RMK A01 T02450174  RH  064%=      5-min Rain = 0
KCR1 201149Z 16002KT 25/17 A3001 RMK A01 T02450174  RH  064%=      5-min Rain = 0
KCR1 201150Z 16002KT 25/17 A3001 RMK A01 T02460174  RH  064%=      5-min Rain = 0
KCR1 201151Z 16002KT 25/18 A3001 RMK A01 T02460175  RH  064%=      5-min Rain = 0
KCR1 201152Z 16002KT 25/18 A3001 RMK A01 T02470175  RH  064%=      5-min Rain = 0
KCR1 201153Z 16002KT 25/18 A3001 RMK A01 T02470175  RH  064%=      5-min Rain = 0
KCR1 201154Z 16002KT 25/18 A3001 RMK A01 T02480175  RH  064%=      5-min Rain = 0
KCR1 201155Z 17001KT 25/18 A3001 RMK A01 T02480176  RH  064%=      5-min Rain = 0
KCR1 201156Z 18001KT 25/18 A3001 RMK A01 T02480176  RH  064%=      5-min Rain = 0
KCR1 201157Z 19001KT 25/18 A3001 RMK A01 T02480176  RH  064%=      5-min Rain = 0
KCR1 201158Z 20001KT 25/18 A3001 RMK A01 T02480176  RH  064%=      5-min Rain = 0
KCR1 201159Z 20001KT 25/18 A3001 RMK A01 T02480176  RH  064%=      5-min Rain = 0
KCR1 201200Z 20001KT 25/18 A3001 RMK A01 T02480176  RH  064%=      5-min Rain = 0
KCR1 201201Z 20002KT 25/18 A3001 RMK A01 T02470176  RH  064%=      5-min Rain = 0
KCR1 201202Z 20001KT 25/18 A3001 RMK A01 T02470176  RH  064%=      5-min Rain = 0
KCR1 201203Z 21002KT 25/18 A3001 RMK A01 T02470176  RH  064%=      5-min Rain = 0
KCR1 201204Z 20002KT 25/18 A3001 RMK A01 T02470176  RH  065%=      5-min Rain = 0
KCR1 201205Z 21002KT 25/18 A3001 RMK A01 T02470176  RH  065%=      5-min Rain = 0
KCR1 201206Z 20002KT 25/18 A3001 RMK A01 T02470175  RH  064%=      5-min Rain = 0
KCR1 201207Z 20002KT 25/18 A3001 RMK A01 T02470175  RH  064%=      5-min Rain = 0
KCR1 201208Z 21002KT 25/18 A3001 RMK A01 T02470175  RH  064%=      5-min Rain = 0
KCR1 201209Z 21002KT 25/18 A3001 RMK A01 T02470175  RH  064%=      5-min Rain = 0
KCR1 201210Z 21002KT 25/18 A3001 RMK A01 T02470175  RH  064%=      5-min Rain = 0
KCR1 201211Z 21002KT 25/18 A3001 RMK A01 T02490176  RH  064%=      5-min Rain = 0
KCR1 201212Z 21003KT 25/18 A3001 RMK A01 T02500176  RH  063%=      5-min Rain = 0
KCR1 201213Z 21003KT 25/18 A3001 RMK A01 T02510176  RH  063%=      5-min Rain = 0
KCR1 201214Z 21004KT 25/18 A3001 RMK A01 T02510175  RH  063%=      5-min Rain = 0
KCR1 201215Z 21003KT 25/18 A3001 RMK A01 T02510176  RH  063%=      5-min Rain = 0
KCR1 201216Z 21004KT 25/18 A3001 RMK A01 T02520176  RH  063%=      5-min Rain = 0
KCR1 201217Z 21004KT 25/18 A3001 RMK A01 T02520176  RH  063%=      5-min Rain = 0
KCR1 201218Z 21004KT 25/18 A3001 RMK A01 T02530176  RH  063%=      5-min Rain = 0
KCR1 201219Z 21004KT 25/18 A3001 RMK A01 T02530176  RH  062%=      5-min Rain = 0
KCR1 201220Z 21003KT 25/18 A3002 RMK A01 T02540177  RH  062%=      5-min Rain = 0
KCR1 201221Z 21003KT 25/18 A3002 RMK A01 T02540177  RH  062%=      5-min Rain = 0
KCR1 201222Z 22003KT 25/18 A3002 RMK A01 T02540177  RH  062%=      5-min Rain = 0
KCR1 201223Z 22002KT 25/18 A3002 RMK A01 T02540176  RH  062%=      5-min Rain = 0
KCR1 201224Z 22002KT 25/18 A3002 RMK A01 T02540176  RH  062%=      5-min Rain = 0
KCR1 201225Z 22002KT 26/18 A3002 RMK A01 T02550177  RH  062%=      5-min Rain = 0
KCR1 201226Z 22002KT 25/18 A3002 RMK A01 T02540177  RH  062%=      5-min Rain = 0
KCR1 201227Z 22002KT 25/18 A3002 RMK A01 T02540177  RH  062%=      5-min Rain = 0
KCR1 201228Z 22002KT 25/18 A3002 RMK A01 T02540177  RH  062%=      5-min Rain = 0
KCR1 201229Z 22002KT 25/18 A3002 RMK A01 T02540177  RH  062%=      5-min Rain = 0
KCR1 201230Z 21002KT 25/18 A3002 RMK A01 T02540177  RH  062%=      5-min Rain = 0
KCR1 201231Z 22002KT 25/18 A3002 RMK A01 T02540177  RH  062%=      5-min Rain = 0
KCR1 201232Z 22002KT 25/18 A3002 RMK A01 T02540177  RH  062%=      5-min Rain = 0
KCR1 201233Z 22002KT 25/18 A3002 RMK A01 T02540177  RH  062%=      5-min Rain = 0
KCR1 201234Z 22002KT 25/18 A3002 RMK A01 T02540177  RH  062%=      5-min Rain = 0
KCR1 201235Z 22002KT 26/18 A3002 RMK A01 T02550177  RH  062%=      5-min Rain = 0
KCR1 201236Z 22002KT 26/18 A3002 RMK A01 T02550177  RH  062%=      5-min Rain = 0
KCR1 201237Z 22002KT 26/18 A3002 RMK A01 T02560178  RH  062%=      5-min Rain = 0
KCR1 201238Z 22003KT 26/18 A3002 RMK A01 T02570178  RH  062%=      5-min Rain = 0
KCR1 201239Z 22003KT 26/18 A3002 RMK A01 T02570178  RH  062%=      5-min Rain = 0
KCR1 201240Z 22003KT 26/18 A3002 RMK A01 T02580178  RH  062%=      5-min Rain = 0
KCR1 201241Z 22003KT 26/18 A3002 RMK A01 T02580179  RH  062%=      5-min Rain = 0
KCR1 201242Z 21003KT 26/18 A3002 RMK A01 T02590179  RH  061%=      5-min Rain = 0
KCR1 201243Z 20003KT 26/18 A3002 RMK A01 T02600180  RH  061%=      5-min Rain = 0
KCR1 201244Z 20002KT 26/18 A3002 RMK A01 T02610181  RH  061%=      5-min Rain = 0
KCR1 201245Z 20003KT 26/18 A3002 RMK A01 T02620182  RH  061%=      5-min Rain = 0
KCR1 201246Z 20003KT 26/18 A3002 RMK A01 T02640180  RH  060%=      5-min Rain = 0
KCR1 201247Z 21003KT 26/18 A3002 RMK A01 T02640180  RH  060%=      5-min Rain = 0
KCR1 201248Z 20003KT 27/18 A3002 RMK A01 T02650180  RH  059%=      5-min Rain = 0
KCR1 201249Z 21003KT 27/18 A3002 RMK A01 T02660180  RH  059%=      5-min Rain = 0
KCR1 201250Z 21003KT 27/18 A3002 RMK A01 T02670180  RH  059%=      5-min Rain = 0
KCR1 201251Z 21004KT 27/18 A3002 RMK A01 T02680180  RH  059%=      5-min Rain = 0
KCR1 201252Z 21003KT 27/18 A3002 RMK A01 T02690180  RH  058%=      5-min Rain = 0
KCR1 201253Z 21003KT 27/18 A3002 RMK A01 T02690180  RH  058%=      5-min Rain = 0
KCR1 201254Z 21003KT 27/18 A3002 RMK A01 T02700180  RH  058%=      5-min Rain = 0
KCR1 201255Z 21003KT 27/18 A3002 RMK A01 T02700180  RH  058%=      5-min Rain = 0
KCR1 201256Z 21002KT 27/18 A3002 RMK A01 T02710180  RH  058%=      5-min Rain = 0
KCR1 201257Z 21002KT 27/18 A3002 RMK A01 T02710180  RH  057%=      5-min Rain = 0
KCR1 201258Z 20003KT 27/18 A3002 RMK A01 T02720181  RH  057%=      5-min Rain = 0
KCR1 201259Z 20003KT 27/18 A3002 RMK A01 T02730180  RH  057%=      5-min Rain = 0
KCR1 201300Z 20003KT 27/18 A3003 RMK A01 T02740180  RH  057%=      5-min Rain = 0
KCR1 201301Z 20004KT 27/18 A3003 RMK A01 T02740180  RH  056%=      5-min Rain = 0
KCR1 201302Z 20003KT 27/18 A3003 RMK A01 T02740180  RH  056%=      5-min Rain = 0
KCR1 201303Z 20003KT 28/18 A3002 RMK A01 T02750180  RH  056%=      5-min Rain = 0
KCR1 201304Z 20004KT 28/18 A3002 RMK A01 T02750180  RH  056%=      5-min Rain = 0
KCR1 201305Z 21003KT 28/18 A3002 RMK A01 T02750180  RH  056%=      5-min Rain = 0
KCR1 201306Z 20003KT 28/18 A3002 RMK A01 T02750181  RH  056%=      5-min Rain = 0
KCR1 201307Z 20003KT 28/18 A3002 RMK A01 T02760181  RH  056%=      5-min Rain = 0
KCR1 201308Z 20004KT 28/18 A3002 RMK A01 T02760181  RH  056%=      5-min Rain = 0
KCR1 201309Z 20003KT 28/18 A3002 RMK A01 T02770181  RH  056%=      5-min Rain = 0
KCR1 201310Z 20003KT 28/18 A3002 RMK A01 T02770181  RH  056%=      5-min Rain = 0
KCR1 201311Z 19003KT 28/18 A3002 RMK A01 T02780182  RH  056%=      5-min Rain = 0
KCR1 201312Z 20004KT 28/18 A3002 RMK A01 T02790181  RH  055%=      5-min Rain = 0
KCR1 201313Z 19003KT 28/18 A3003 RMK A01 T02780181  RH  055%=      5-min Rain = 0
KCR1 201314Z 21004KT 28/18 A3003 RMK A01 T02780182  RH  056%=      5-min Rain = 0
KCR1 201315Z 21003KT 28/18 A3003 RMK A01 T02780181  RH  056%=      5-min Rain = 0
KCR1 201316Z 21003KT 28/18 A3003 RMK A01 T02800182  RH  055%=      5-min Rain = 0
KCR1 201317Z 21002KT 28/18 A3003 RMK A01 T02810183  RH  055%=      5-min Rain = 0
KCR1 201318Z 21003KT 28/18 A3003 RMK A01 T02820182  RH  055%=      5-min Rain = 0
KCR1 201319Z 20003KT 28/18 A3003 RMK A01 T02820182  RH  055%=      5-min Rain = 0
KCR1 201320Z 20004KT 28/18 A3003 RMK A01 T02820182  RH  055%=      5-min Rain = 0
KCR1 201321Z 19004KT 28/18 A3003 RMK A01 T02820182  RH  055%=      5-min Rain = 0
KCR1 201322Z 20005KT 28/18 A3003 RMK A01 T02820183  RH  055%=      5-min Rain = 0
KCR1 201323Z 21005KT 28/18 A3003 RMK A01 T02820182  RH  055%=      5-min Rain = 0
KCR1 201324Z 21004KT 28/18 A3003 RMK A01 T02830183  RH  055%=      5-min Rain = 0
KCR1 201325Z 20005KT 29/18 A3003 RMK A01 T02850184  RH  054%=      5-min Rain = 0
KCR1 201326Z 21005KT 29/18 A3003 RMK A01 T02860183  RH  054%=      5-min Rain = 0
KCR1 201327Z 21005KT 29/18 A3003 RMK A01 T02870183  RH  053%=      5-min Rain = 0
KCR1 201328Z 21004KT 29/18 A3003 RMK A01 T02870184  RH  054%=      5-min Rain = 0
KCR1 201329Z 22004KT 29/18 A3002 RMK A01 T02860183  RH  054%=      5-min Rain = 0
KCR1 201330Z 23004KT 29/18 A3002 RMK A01 T02860184  RH  054%=      5-min Rain = 0
KCR1 201331Z 22005KT 29/18 A3002 RMK A01 T02860184  RH  054%=      5-min Rain = 0
KCR1 201332Z 22004KT 29/18 A3002 RMK A01 T02880184  RH  054%=      5-min Rain = 0
KCR1 201333Z 23004KT 29/18 A3002 RMK A01 T02880184  RH  053%=      5-min Rain = 0
KCR1 201334Z 22005KT 29/18 A3002 RMK A01 T02890184  RH  053%=      5-min Rain = 0
KCR1 201335Z 22005KT 29/18 A3002 RMK A01 T02890184  RH  053%=      5-min Rain = 0
KCR1 201336Z 22005KT 29/18 A3002 RMK A01 T02900184  RH  053%=      5-min Rain = 0
KCR1 201337Z 22006KT 29/18 A3002 RMK A01 T02910184  RH  052%=      5-min Rain = 0
KCR1 201338Z 21006KT 29/18 A3003 RMK A01 T02910184  RH  052%=      5-min Rain = 0
KCR1 201339Z 20006KT 29/19 A3003 RMK A01 T02930185  RH  052%=      5-min Rain = 0
KCR1 201340Z 20006KT 30/18 A3003 RMK A01 T02960184  RH  051%=      5-min Rain = 0
KCR1 201341Z 20007KT 30/18 A3003 RMK A01 T02970184  RH  051%=      5-min Rain = 0
KCR1 201342Z 20006KT 30/18 A3003 RMK A01 T02980184  RH  051%=      5-min Rain = 0
KCR1 201343Z 20008KT 30/18 A3003 RMK A01 T02980184  RH  051%=      5-min Rain = 0
KCR1 201344Z 20007KT 30/18 A3003 RMK A01 T02980183  RH  050%=      5-min Rain = 0
KCR1 201345Z 20006KT 30/18 A3003 RMK A01 T02990184  RH  050%=      5-min Rain = 0
KCR1 201346Z 20009KT 30/18 A3003 RMK A01 T03000183  RH  050%=      5-min Rain = 0
KCR1 201347Z 20006KT 30/18 A3003 RMK A01 T03000182  RH  049%=      5-min Rain = 0
KCR1 201348Z 19008KT 30/18 A3003 RMK A01 T03000183  RH  049%=      5-min Rain = 0
KCR1 201349Z 19007KT 30/18 A3003 RMK A01 T03010184  RH  049%=      5-min Rain = 0
KCR1 201350Z 20009KT 30/18 A3003 RMK A01 T03020183  RH  049%=      5-min Rain = 0
KCR1 201351Z 20007KT 30/18 A3003 RMK A01 T03020182  RH  049%=      5-min Rain = 0
KCR1 201352Z 20007KT 30/18 A3003 RMK A01 T03030183  RH  049%=      5-min Rain = 0
KCR1 201353Z 19007KT 31/18 A3003 RMK A01 T03050184  RH  048%=      5-min Rain = 0
KCR1 201354Z 20007KT 31/18 A3003 RMK A01 T03060183  RH  048%=      5-min Rain = 0
KCR1 201355Z 19007KT 31/18 A3004 RMK A01 T03070184  RH  048%=      5-min Rain = 0
KCR1 201356Z 21007KT 31/18 A3004 RMK A01 T03080183  RH  047%=      5-min Rain = 0
KCR1 201357Z 20007KT 31/18 A3004 RMK A01 T03080183  RH  047%=      5-min Rain = 0
KCR1 201358Z 19007KT 31/18 A3004 RMK A01 T03080183  RH  047%=      5-min Rain = 0
KCR1 201359Z 19007KT 31/18 A3004 RMK A01 T03080183  RH  047%=      5-min Rain = 0
KCR1 201400Z 19007KT 31/18 A3004 RMK A01 T03090184  RH  047%=      5-min Rain = 0
KCR1 201401Z 20009KT 31/18 A3004 RMK A01 T03110184  RH  047%=      5-min Rain = 0
KCR1 201402Z 19007KT 31/18 A3004 RMK A01 T03110183  RH  046%=      5-min Rain = 0
KCR1 201403Z 20007KT 31/18 A3004 RMK A01 T03110182  RH  046%=      5-min Rain = 0
KCR1 201404Z 20007KT 31/18 A3004 RMK A01 T03110182  RH  046%=      5-min Rain = 0
KCR1 201405Z 20007KT 31/18 A3004 RMK A01 T03100183  RH  047%=      5-min Rain = 0
KCR1 201406Z 21007KT 31/18 A3004 RMK A01 T03100183  RH  047%=      5-min Rain = 0
KCR1 201407Z 23005KT 31/18 A3004 RMK A01 T03110183  RH  047%=      5-min Rain = 0
KCR1 201408Z 23008KT 31/18 A3004 RMK A01 T03110184  RH  047%=      5-min Rain = 0
KCR1 201409Z 22008KT 31/18 A3004 RMK A01 T03120184  RH  047%=      5-min Rain = 0
KCR1 201410Z 22007KT 31/18 A3004 RMK A01 T03120184  RH  046%=      5-min Rain = 0
KCR1 201411Z 22006KT 31/18 A3004 RMK A01 T03120183  RH  046%=      5-min Rain = 0
KCR1 201412Z 23007KT 31/18 A3004 RMK A01 T03120184  RH  047%=      5-min Rain = 0
KCR1 201413Z 22008KT 31/18 A3004 RMK A01 T03130184  RH  046%=      5-min Rain = 0
KCR1 201414Z 22009KT 31/18 A3003 RMK A01 T03140184  RH  046%=      5-min Rain = 0
KCR1 201415Z 21010KT 31/18 A3003 RMK A01 T03130183  RH  046%=      5-min Rain = 0
KCR1 201416Z 21010KT 31/18 A3003 RMK A01 T03120182  RH  046%=      5-min Rain = 0
KCR1 201417Z 22010KT 31/18 A3003 RMK A01 T03120183  RH  046%=      5-min Rain = 0
KCR1 201418Z 22008KT 31/18 A3003 RMK A01 T03120183  RH  046%=      5-min Rain = 0
KCR1 201419Z 22008KT 31/18 A3004 RMK A01 T03140184  RH  046%=      5-min Rain = 0
KCR1 201420Z 22007KT 31/18 A3003 RMK A01 T03140183  RH  046%=      5-min Rain = 0
KCR1 201421Z 22007KT 31/18 A3004 RMK A01 T03140184  RH  046%=      5-min Rain = 0
KCR1 201422Z 22007KT 32/18 A3004 RMK A01 T03150184  RH  046%=      5-min Rain = 0
KCR1 201423Z 22007KT 32/18 A3004 RMK A01 T03160184  RH  045%=      5-min Rain = 0
KCR1 201424Z 22007KT 32/19 A3004 RMK A01 T03170185  RH  045%=      5-min Rain = 0
KCR1 201425Z 24009KT 32/18 A3004 RMK A01 T03170184  RH  045%=      5-min Rain = 0
KCR1 201426Z 23009KT 32/18 A3004 RMK A01 T03160183  RH  045%=      5-min Rain = 0
KCR1 201427Z 22009KT 32/18 A3004 RMK A01 T03160184  RH  045%=      5-min Rain = 0
KCR1 201428Z 22008KT 32/18 A3004 RMK A01 T03150183  RH  046%=      5-min Rain = 0
KCR1 201429Z 21006KT 31/18 A3004 RMK A01 T03140184  RH  046%=      5-min Rain = 0
KCR1 201430Z 21007KT 32/19 A3004 RMK A01 T03170185  RH  046%=      5-min Rain = 0
KCR1 201431Z 21009KT 32/19 A3004 RMK A01 T03200185  RH  045%=      5-min Rain = 0
KCR1 201432Z 21008KT 32/18 A3004 RMK A01 T03210184  RH  044%=      5-min Rain = 0
KCR1 201433Z 21007KT 32/18 A3004 RMK A01 T03210184  RH  044%=      5-min Rain = 0
KCR1 201434Z 23005KT 32/19 A3004 RMK A01 T03230186  RH  044%=      5-min Rain = 0
KCR1 201435Z 22008KT 32/19 A3003 RMK A01 T03240185  RH  044%=      5-min Rain = 0
KCR1 201436Z 23008KT 32/18 A3003 RMK A01 T03230183  RH  044%=      5-min Rain = 0
KCR1 201437Z 24008KT 32/18 A3003 RMK A01 T03210184  RH  044%=      5-min Rain = 0
KCR1 201438Z 23005KT 32/18 A3003 RMK A01 T03220184  RH  044%=      5-min Rain = 0
KCR1 201439Z 23008KT 32/18 A3003 RMK A01 T03240184  RH  044%=      5-min Rain = 0
KCR1 201440Z 25008KT 33/18 A3003 RMK A01 T03250184  RH  043%=      5-min Rain = 0
KCR1 201441Z 23007KT 33/19 A3003 RMK A01 T03250185  RH  043%=      5-min Rain = 0
KCR1 201442Z 24009KT 33/18 A3003 RMK A01 T03250184  RH  043%=      5-min Rain = 0
KCR1 201443Z 24009KT 33/18 A3003 RMK A01 T03250184  RH  043%=      5-min Rain = 0
KCR1 201444Z 24008KT 32/18 A3003 RMK A01 T03240184  RH  043%=      5-min Rain = 0
KCR1 201445Z 25007KT 33/18 A3003 RMK A01 T03250184  RH  043%=      5-min Rain = 0
KCR1 201446Z 24006KT 33/18 A3003 RMK A01 T03250184  RH  043%=      5-min Rain = 0
KCR1 201447Z 23009KT 33/18 A3003 RMK A01 T03260184  RH  043%=      5-min Rain = 0
KCR1 201448Z 23009KT 33/18 A3003 RMK A01 T03260184  RH  043%=      5-min Rain = 0
KCR1 201449Z 22009KT 33/18 A3003 RMK A01 T03260184  RH  043%=      5-min Rain = 0
KCR1 201450Z 22009KT 33/18 A3003 RMK A01 T03280184  RH  043%=      5-min Rain = 0
KCR1 201451Z 22007KT 33/18 A3003 RMK A01 T03280184  RH  042%=      5-min Rain = 0
KCR1 201452Z 21006KT 33/18 A3003 RMK A01 T03270184  RH  043%=      5-min Rain = 0
KCR1 201453Z 21005KT 33/19 A3003 RMK A01 T03300185  RH  042%=      5-min Rain = 0
KCR1 201454Z 21008KT 33/19 A3003 RMK A01 T03300185  RH  042%=      5-min Rain = 0
KCR1 201455Z 22007KT 33/19 A3003 RMK A01 T03330185  RH  042%=      5-min Rain = 0
KCR1 201456Z 24006KT 33/19 A3003 RMK A01 T03330185  RH  042%=      5-min Rain = 0
KCR1 201457Z 24006KT 33/19 A3003 RMK A01 T03330186  RH  042%=      5-min Rain = 0
KCR1 201458Z 23006KT 33/19 A3003 RMK A01 T03340186  RH  041%=      5-min Rain = 0
KCR1 201459Z 22007KT 34/19 A3003 RMK A01 T03350186  RH  041%=      5-min Rain = 0
KCR1 201500Z 23007KT 34/19 A3003 RMK A01 T03350185  RH  041%=      5-min Rain = 0
KCR1 201501Z 25007KT 33/19 A3004 RMK A01 T03330185  RH  041%=      5-min Rain = 0
KCR1 201502Z 25007KT 33/19 A3003 RMK A01 T03320185  RH  042%=      5-min Rain = 0
KCR1 201503Z 23007KT 33/19 A3003 RMK A01 T03320186  RH  042%=      5-min Rain = 0
KCR1 201504Z 23007KT 34/19 A3003 RMK A01 T03350186  RH  041%=      5-min Rain = 0
KCR1 201505Z 24008KT 34/19 A3003 RMK A01 T03370186  RH  041%=      5-min Rain = 0
KCR1 201506Z 26008KT 34/19 A3003 RMK A01 T03360186  RH  041%=      5-min Rain = 0
KCR1 201507Z 24007KT 34/19 A3003 RMK A01 T03350185  RH  041%=      5-min Rain = 0
KCR1 201508Z 23007KT 33/19 A3003 RMK A01 T03340185  RH  042%=      5-min Rain = 0
KCR1 201509Z 24006KT 33/19 A3003 RMK A01 T03330185  RH  041%=      5-min Rain = 0
KCR1 201510Z 23007KT 33/19 A3003 RMK A01 T03340185  RH  042%=      5-min Rain = 0
KCR1 201511Z 23008KT 34/19 A3003 RMK A01 T03350185  RH  041%=      5-min Rain = 0
KCR1 201512Z 22006KT 34/19 A3003 RMK A01 T03360185  RH  041%=      5-min Rain = 0
KCR1 201513Z 25007KT 34/19 A3003 RMK A01 T03360185  RH  041%=      5-min Rain = 0
KCR1 201514Z 26004KT 34/19 A3003 RMK A01 T03350185  RH  041%=      5-min Rain = 0
KCR1 201515Z 25006KT 34/19 A3003 RMK A01 T03360187  RH  041%=      5-min Rain = 0
KCR1 201516Z 24008KT 34/19 A3003 RMK A01 T03390187  RH  041%=      5-min Rain = 0
KCR1 201517Z 26008KT 34/19 A3003 RMK A01 T03390186  RH  040%=      5-min Rain = 0
KCR1 201518Z 25010KT 34/19 A3003 RMK A01 T03390187  RH  041%=      5-min Rain = 0
KCR1 201519Z 23008KT 34/19 A3003 RMK A01 T03390186  RH  040%=      5-min Rain = 0
KCR1 201520Z 24007KT 34/19 A3003 RMK A01 T03390186  RH  040%=      5-min Rain = 0
KCR1 201521Z 24007KT 34/19 A3003 RMK A01 T03380185  RH  040%=      5-min Rain = 0
KCR1 201522Z 25010KT 34/19 A3003 RMK A01 T03370185  RH  041%=      5-min Rain = 0
KCR1 201523Z 24007KT 34/19 A3003 RMK A01 T03360185  RH  041%=      5-min Rain = 0
KCR1 201524Z 26007KT 34/19 A3003 RMK A01 T03360186  RH  041%=      5-min Rain = 0
KCR1 201525Z 25007KT 34/19 A3003 RMK A01 T03390188  RH  041%=      5-min Rain = 0
KCR1 201526Z 26007KT 34/19 A3003 RMK A01 T03420188  RH  040%=      5-min Rain = 0
KCR1 201527Z 26009KT 34/19 A3003 RMK A01 T03430187  RH  040%=      5-min Rain = 0
KCR1 201528Z 26009KT 34/19 A3003 RMK A01 T03420187  RH  040%=      5-min Rain = 0
KCR1 201529Z 26009KT 34/19 A3003 RMK A01 T03400186  RH  040%=      5-min Rain = 0
KCR1 201530Z 25009KT 34/19 A3003 RMK A01 T03400187  RH  041%=      5-min Rain = 0
KCR1 201531Z 24008KT 34/19 A3003 RMK A01 T03410187  RH  040%=      5-min Rain = 0
KCR1 201532Z 23010KT 34/19 A3003 RMK A01 T03420187  RH  040%=      5-min Rain = 0
KCR1 201533Z 22007KT 34/19 A3003 RMK A01 T03410186  RH  040%=      5-min Rain = 0
KCR1 201534Z 25006KT 34/19 A3003 RMK A01 T03410188  RH  040%=      5-min Rain = 0
KCR1 201535Z 24008KT 34/19 A3003 RMK A01 T03430188  RH  040%=      5-min Rain = 0
KCR1 201536Z 24008KT 34/19 A3003 RMK A01 T03430188  RH  040%=      5-min Rain = 0
KCR1 201537Z 25007KT 34/19 A3004 RMK A01 T03420186  RH  040%=      5-min Rain = 0
KCR1 201538Z 25007KT 34/19 A3004 RMK A01 T03410187  RH  040%=      5-min Rain = 0
KCR1 201539Z 21010KT 34/19 A3004 RMK A01 T03410187  RH  040%=      5-min Rain = 0
KCR1 201540Z 21008KT 34/19 A3004 RMK A01 T03420186  RH  040%=      5-min Rain = 0
KCR1 201541Z 23007G12KT 34/19 A3004 RMK A01 T03420187  RH  040%=      5-min Rain = 0
KCR1 201542Z 22009KT 34/19 A3004 RMK A01 T03430186  RH  040%=      5-min Rain = 0
KCR1 201543Z 22009KT 34/19 A3004 RMK A01 T03430186  RH  040%=      5-min Rain = 0
KCR1 201544Z 22009KT 34/19 A3004 RMK A01 T03440187  RH  040%=      5-min Rain = 0
KCR1 201545Z 22007KT 35/19 A3004 RMK A01 T03450187  RH  039%=      5-min Rain = 0
KCR1 201546Z 22006KT 34/19 A3004 RMK A01 T03430186  RH  040%=      5-min Rain = 0
KCR1 201547Z 24006KT 34/19 A3004 RMK A01 T03430187  RH  040%=      5-min Rain = 0
KCR1 201548Z 25008KT 35/19 A3004 RMK A01 T03450188  RH  040%=      5-min Rain = 0
KCR1 201549Z 25009KT 35/19 A3004 RMK A01 T03480187  RH  039%=      5-min Rain = 0
KCR1 201550Z 25006KT 35/19 A3004 RMK A01 T03470187  RH  039%=      5-min Rain = 0
KCR1 201551Z 24005KT 35/19 A3004 RMK A01 T03460187  RH  039%=      5-min Rain = 0
KCR1 201552Z 22005KT 35/19 A3004 RMK A01 T03470187  RH  039%=      5-min Rain = 0
KCR1 201553Z 22008KT 35/19 A3004 RMK A01 T03500188  RH  038%=      5-min Rain = 0
KCR1 201554Z 21009KT 35/19 A3004 RMK A01 T03520187  RH  038%=      5-min Rain = 0
KCR1 201555Z 21009KT 35/19 A3004 RMK A01 T03510186  RH  038%=      5-min Rain = 0
KCR1 201556Z 21008KT 35/19 A3004 RMK A01 T03500186  RH  038%=      5-min Rain = 0
KCR1 201557Z 21006KT 35/19 A3004 RMK A01 T03490186  RH  038%=      5-min Rain = 0
KCR1 201558Z 24005KT 35/19 A3004 RMK A01 T03510187  RH  038%=      5-min Rain = 0
KCR1 201559Z 25006KT 35/19 A3004 RMK A01 T03520187  RH  038%=      5-min Rain = 0
KCR1 201600Z 25007KT 35/19 A3004 RMK A01 T03510186  RH  038%=      5-min Rain = 0
KCR1 201601Z 23006KT 35/19 A3004 RMK A01 T03500186  RH  038%=      5-min Rain = 0
KCR1 201602Z 25009G14KT 35/19 A3004 RMK A01 T03490187  RH  038%=      5-min Rain = 0
KCR1 201603Z 22009KT 35/19 A3004 RMK A01 T03490187  RH  038%=      5-min Rain = 0
KCR1 201604Z 22007KT 35/19 A3004 RMK A01 T03510187  RH  038%=      5-min Rain = 0
KCR1 201605Z 23006KT 35/19 A3004 RMK A01 T03520186  RH  038%=      5-min Rain = 0
KCR1 201606Z 21007KT 35/19 A3004 RMK A01 T03510187  RH  038%=      5-min Rain = 0
KCR1 201607Z 21008KT 35/19 A3004 RMK A01 T03520186  RH  038%=      5-min Rain = 0
KCR1 201608Z 21010KT 35/19 A3004 RMK A01 T03530187  RH  038%=      5-min Rain = 0
KCR1 201609Z 21010KT 35/19 A3004 RMK A01 T03540187  RH  038%=      5-min Rain = 0
KCR1 201610Z 19007KT 36/19 A3004 RMK A01 T03560187  RH  037%=      5-min Rain = 0
KCR1 201611Z 20004KT 36/19 A3004 RMK A01 T03550187  RH  037%=      5-min Rain = 0
KCR1 201612Z 20008KT 36/19 A3004 RMK A01 T03560187  RH  037%=      5-min Rain = 0
KCR1 201613Z 22007KT 36/19 A3004 RMK A01 T03550186  RH  037%=      5-min Rain = 0
KCR1 201614Z 20005KT 35/19 A3004 RMK A01 T03530186  RH  037%=      5-min Rain = 0
KCR1 201615Z 21005KT 35/19 A3004 RMK A01 T03530187  RH  038%=      5-min Rain = 0
KCR1 201616Z 20006KT 36/19 A3004 RMK A01 T03560189  RH  037%=      5-min Rain = 0
KCR1 201617Z 22007KT 36/19 A3004 RMK A01 T03590189  RH  037%=      5-min Rain = 0
KCR1 201618Z 23009KT 36/19 A3004 RMK A01 T03620188  RH  036%=      5-min Rain = 0
KCR1 201619Z 24008KT 36/19 A3004 RMK A01 T03620187  RH  036%=      5-min Rain = 0
KCR1 201620Z 24008KT 36/19 A3004 RMK A01 T03590186  RH  036%=      5-min Rain = 0
KCR1 201621Z 25007KT 36/19 A3004 RMK A01 T03570186  RH  036%=      5-min Rain = 0
KCR1 201622Z 26004KT 36/19 A3004 RMK A01 T03570186  RH  037%=      5-min Rain = 0
KCR1 201623Z 24003KT 36/19 A3004 RMK A01 T03580186  RH  037%=      5-min Rain = 0
KCR1 201624Z 29005KT 36/19 A3004 RMK A01 T03580187  RH  036%=      5-min Rain = 0
KCR1 201625Z 29003KT 36/19 A3004 RMK A01 T03580186  RH  037%=      5-min Rain = 0
KCR1 201626Z 25003KT 36/19 A3004 RMK A01 T03570187  RH  037%=      5-min Rain = 0
KCR1 201627Z 21007KT 36/19 A3004 RMK A01 T03580187  RH  037%=      5-min Rain = 0
KCR1 201628Z 19007KT 36/19 A3004 RMK A01 T03610187  RH  036%=      5-min Rain = 0
KCR1 201629Z 16004KT 36/19 A3004 RMK A01 T03600188  RH  036%=      5-min Rain = 0
KCR1 201630Z 22007KT 36/19 A3004 RMK A01 T03610189  RH  037%=      5-min Rain = 0
KCR1 201631Z 25009KT 36/19 A3004 RMK A01 T03640187  RH  036%=      5-min Rain = 0
KCR1 201632Z 25009KT 37/19 A3004 RMK A01 T03650187  RH  035%=      5-min Rain = 0
KCR1 201633Z 26006KT 36/19 A3004 RMK A01 T03630187  RH  036%=      5-min Rain = 0
KCR1 201634Z 28005KT 36/19 A3004 RMK A01 T03630187  RH  036%=      5-min Rain = 0
KCR1 201635Z 26005KT 36/19 A3004 RMK A01 T03610187  RH  036%=      5-min Rain = 0
KCR1 201636Z 24010KT 36/19 A3004 RMK A01 T03620188  RH  036%=      5-min Rain = 0
KCR1 201637Z 23009KT 36/19 A3004 RMK A01 T03640185  RH  035%=      5-min Rain = 0
KCR1 201638Z 21007KT 36/18 A3004 RMK A01 T03620184  RH  035%=      5-min Rain = 0
KCR1 201639Z 24005KT 36/19 A3004 RMK A01 T03620186  RH  036%=      5-min Rain = 0
KCR1 201640Z 24004KT 36/19 A3004 RMK A01 T03640186  RH  035%=      5-min Rain = 0
KCR1 201641Z 22005KT 37/19 A3004 RMK A01 T03650187  RH  035%=      5-min Rain = 0
KCR1 201642Z 24006KT 37/19 A3004 RMK A01 T03660186  RH  035%=      5-min Rain = 0
KCR1 201643Z 25005KT 37/19 A3004 RMK A01 T03650185  RH  035%=      5-min Rain = 0
KCR1 201644Z 24004KT 36/18 A3004 RMK A01 T03620184  RH  035%=      5-min Rain = 0
KCR1 201645Z 26003KT 36/19 A3004 RMK A01 T03610186  RH  036%=      5-min Rain = 0
KCR1 201646Z 24002KT 37/19 A3004 RMK A01 T03650186  RH  035%=      5-min Rain = 0
KCR1 201647Z 17003KT 37/19 A3004 RMK A01 T03650186  RH  035%=      5-min Rain = 0
KCR1 201648Z 18008KT 37/19 A3004 RMK A01 T03660188  RH  035%=      5-min Rain = 0
KCR1 201649Z 18009KT 37/19 A3004 RMK A01 T03700188  RH  034%=      5-min Rain = 0
KCR1 201650Z 20007KT 37/19 A3004 RMK A01 T03720187  RH  034%=      5-min Rain = 0
KCR1 201651Z 21003KT 37/18 A3004 RMK A01 T03690184  RH  034%=      5-min Rain = 0
KCR1 201652Z 19005KT 36/18 A3004 RMK A01 T03640183  RH  034%=      5-min Rain = 0
KCR1 201653Z 17004KT 36/19 A3004 RMK A01 T03640186  RH  035%=      5-min Rain = 0
KCR1 201654Z 18005KT 37/19 A3004 RMK A01 T03670186  RH  035%=      5-min Rain = 0
KCR1 201655Z 16008KT 37/19 A3004 RMK A01 T03660187  RH  035%=      5-min Rain = 0
KCR1 201656Z 16007KT 37/19 A3004 RMK A01 T03670187  RH  035%=      5-min Rain = 0
KCR1 201657Z 14005KT 37/19 A3004 RMK A01 T03670187  RH  035%=      5-min Rain = 0
KCR1 201658Z 15005KT 37/19 A3004 RMK A01 T03660186  RH  035%=      5-min Rain = 0
KCR1 201659Z 18005KT 37/19 A3004 RMK A01 T03650188  RH  035%=      5-min Rain = 0
KCR1 201700Z 20005KT 37/19 A3004 RMK A01 T03660186  RH  035%=      5-min Rain = 0
KCR1 201701Z 21009KT 37/19 A3004 RMK A01 T03690186  RH  034%=      5-min Rain = 0
KCR1 201702Z 20007KT 37/19 A3004 RMK A01 T03700186  RH  034%=      5-min Rain = 0
KCR1 201703Z 18008KT 37/19 A3004 RMK A01 T03710185  RH  034%=      5-min Rain = 0
KCR1 201704Z 18005KT 37/18 A3004 RMK A01 T03680183  RH  034%=      5-min Rain = 0
KCR1 201705Z 18007KT 37/18 A3004 RMK A01 T03660184  RH  034%=      5-min Rain = 0
KCR1 201706Z 18005KT 37/18 A3004 RMK A01 T03660184  RH  034%=      5-min Rain = 0
KCR1 201707Z 21007KT 37/18 A3004 RMK A01 T03680182  RH  034%=      5-min Rain = 0
KCR1 201708Z 24008KT 37/19 A3004 RMK A01 T03690185  RH  034%=      5-min Rain = 0
KCR1 201709Z 23005KT 37/19 A3004 RMK A01 T03720185  RH  034%=      5-min Rain = 0
KCR1 201710Z 27007KT 37/19 A3004 RMK A01 T03680185  RH  034%=      5-min Rain = 0
KCR1 201711Z 27004KT 37/19 A3004 RMK A01 T03690186  RH  034%=      5-min Rain = 0
KCR1 201712Z 32001KT 37/19 A3003 RMK A01 T03680185  RH  034%=      5-min Rain = 0
KCR1 201713Z 21005KT 37/19 A3003 RMK A01 T03670187  RH  035%=      5-min Rain = 0
KCR1 201714Z 20005KT 37/19 A3003 RMK A01 T03700186  RH  034%=      5-min Rain = 0
KCR1 201715Z 21006KT 37/19 A3003 RMK A01 T03690187  RH  034%=      5-min Rain = 0
KCR1 201716Z 21007G12KT 37/19 A3003 RMK A01 T03700187  RH  034%=      5-min Rain = 0
KCR1 201717Z 21011KT 37/19 A3003 RMK A01 T03740185  RH  033%=      5-min Rain = 0
KCR1 201718Z 19010KT 38/19 A3003 RMK A01 T03750185  RH  033%=      5-min Rain = 0
KCR1 201719Z 20010KT 38/18 A3003 RMK A01 T03750184  RH  033%=      5-min Rain = 0
KCR1 201720Z 19009KT 37/18 A3003 RMK A01 T03720183  RH  033%=      5-min Rain = 0
KCR1 201721Z 19009KT 37/18 A3004 RMK A01 T03700182  RH  033%=      5-min Rain = 0
KCR1 201722Z 19006KT 37/18 A3004 RMK A01 T03690180  RH  033%=      5-min Rain = 0
KCR1 201723Z 18007KT 37/18 A3004 RMK A01 T03690179  RH  033%=      5-min Rain = 0
KCR1 201724Z 19005KT 37/18 A3004 RMK A01 T03650175  RH  033%=      5-min Rain = 0
KCR1 201725Z 17005KT 36/18 A3004 RMK A01 T03640178  RH  034%=      5-min Rain = 0
KCR1 201726Z 14002KT 36/18 A3004 RMK A01 T03640180  RH  034%=      5-min Rain = 0
KCR1 201727Z 07002KT 36/18 A3003 RMK A01 T03640183  RH  035%=      5-min Rain = 0
KCR1 201728Z 04003KT 37/18 A3003 RMK A01 T03660182  RH  034%=      5-min Rain = 0
KCR1 201729Z 12002KT 37/18 A3003 RMK A01 T03680183  RH  034%=      5-min Rain = 0
KCR1 201730Z 23006KT 37/19 A3003 RMK A01 T03730185  RH  033%=      5-min Rain = 0
KCR1 201731Z 20010KT 38/18 A3003 RMK A01 T03770184  RH  032%=      5-min Rain = 0
KCR1 201732Z 21009KT 38/18 A3003 RMK A01 T03770182  RH  032%=      5-min Rain = 0
KCR1 201733Z 24007KT 37/18 A3003 RMK A01 T03740181  RH  032%=      5-min Rain = 0
KCR1 201734Z 23006KT 37/18 A3003 RMK A01 T03710180  RH  033%=      5-min Rain = 0
KCR1 201735Z 23007KT 37/18 A3003 RMK A01 T03690181  RH  033%=      5-min Rain = 0
KCR1 201736Z 19008KT 37/18 A3003 RMK A01 T03690182  RH  034%=      5-min Rain = 0
KCR1 201737Z 16009KT 37/18 A3003 RMK A01 T03720183  RH  033%=      5-min Rain = 0
KCR1 201738Z 17007KT 37/18 A3003 RMK A01 T03700182  RH  033%=      5-min Rain = 0
KCR1 201739Z 18005KT 37/18 A3003 RMK A01 T03670181  RH  034%=      5-min Rain = 0
KCR1 201740Z 20006KT 37/18 A3003 RMK A01 T03670182  RH  034%=      5-min Rain = 0
KCR1 201741Z 21005KT 37/18 A3003 RMK A01 T03680182  RH  033%=      5-min Rain = 0
KCR1 201742Z 22002KT 37/18 A3003 RMK A01 T03660181  RH  034%=      5-min Rain = 0
KCR1 201743Z 25001KT 37/18 A3003 RMK A01 T03650181  RH  034%=      5-min Rain = 0
KCR1 201744Z 25003KT 36/18 A3003 RMK A01 T03640181  RH  034%=      5-min Rain = 0
KCR1 201745Z 25002KT 36/18 A3003 RMK A01 T03620181  RH  035%=      5-min Rain = 0
KCR1 201746Z 22001KT 36/18 A3003 RMK A01 T03620182  RH  035%=      5-min Rain = 0
KCR1 201747Z 19005G13KT 37/18 A3003 RMK A01 T03650183  RH  034%=      5-min Rain = 0
KCR1 201748Z 20007KT 37/18 A3003 RMK A01 T03690184  RH  034%=      5-min Rain = 0
KCR1 201749Z 20009KT 38/19 A3003 RMK A01 T03750185  RH  033%=      5-min Rain = 0
KCR1 201750Z 20007KT 38/18 A3003 RMK A01 T03770184  RH  032%=      5-min Rain = 0
KCR1 201751Z 22009KT 38/18 A3003 RMK A01 T03770184  RH  032%=      5-min Rain = 0
KCR1 201752Z 23007KT 38/18 A3003 RMK A01 T03780183  RH  032%=      5-min Rain = 0
KCR1 201753Z 23008KT 38/18 A3003 RMK A01 T03780183  RH  032%=      5-min Rain = 0
KCR1 201754Z 24006KT 37/18 A3003 RMK A01 T03740181  RH  032%=      5-min Rain = 0
KCR1 201755Z 25007KT 37/18 A3003 RMK A01 T03720182  RH  033%=      5-min Rain = 0
KCR1 201756Z 26003KT 37/18 A3003 RMK A01 T03700182  RH  033%=      5-min Rain = 0
KCR1 201757Z 21001KT 37/18 A3003 RMK A01 T03690182  RH  033%=      5-min Rain = 0
KCR1 201758Z 18004KT 37/18 A3003 RMK A01 T03700183  RH  033%=      5-min Rain = 0
KCR1 201759Z 17006KT 37/18 A3003 RMK A01 T03700184  RH  034%=      5-min Rain = 0
KCR1 201800Z 16007KT 37/18 A3003 RMK A01 T03730183  RH  033%=      5-min Rain = 0
KCR1 201801Z 12008KT 38/18 A3003 RMK A01 T03750183  RH  032%=      5-min Rain = 0
KCR1 201802Z 12007KT 38/18 A3003 RMK A01 T03760183  RH  032%=      5-min Rain = 0
KCR1 201803Z 16008KT 38/18 A3003 RMK A01 T03790184  RH  032%=      5-min Rain = 0
KCR1 201804Z 18009KT 38/19 A3003 RMK A01 T03800186  RH  032%=      5-min Rain = 0
KCR1 201805Z 19010KT 38/18 A3003 RMK A01 T03830184  RH  031%=      5-min Rain = 0
KCR1 201806Z 19010KT 38/18 A3003 RMK A01 T03830183  RH  031%=      5-min Rain = 0
KCR1 201807Z 21006KT 38/18 A3003 RMK A01 T03810181  RH  031%=      5-min Rain = 0
KCR1 201808Z 21007KT 38/18 A3002 RMK A01 T03800181  RH  031%=      5-min Rain = 0
KCR1 201809Z 21010KT 38/18 A3002 RMK A01 T03780180  RH  032%=      5-min Rain = 0
KCR1 201810Z 21008KT 38/18 A3002 RMK A01 T03790180  RH  031%=      5-min Rain = 0
KCR1 201811Z 19008KT 38/18 A3002 RMK A01 T03780180  RH  031%=      5-min Rain = 0
KCR1 201812Z 20006KT 38/18 A3002 RMK A01 T03770178  RH  031%=      5-min Rain = 0
KCR1 201813Z 21008KT 38/18 A3002 RMK A01 T03770179  RH  031%=      5-min Rain = 0
KCR1 201814Z 22010KT 38/18 A3002 RMK A01 T03790177  RH  031%=      5-min Rain = 0
KCR1 201815Z 23007KT 38/18 A3002 RMK A01 T03760175  RH  031%=      5-min Rain = 0
KCR1 201816Z 22009G14KT 38/18 A3002 RMK A01 T03790180  RH  031%=      5-min Rain = 0
KCR1 201817Z 22006KT 38/18 A3002 RMK A01 T03810177  RH  030%=      5-min Rain = 0
KCR1 201818Z 15006KT 38/18 A3002 RMK A01 T03800179  RH  031%=      5-min Rain = 0
KCR1 201819Z 17005KT 38/18 A3002 RMK A01 T03790179  RH  031%=      5-min Rain = 0
KCR1 201820Z 14008KT 38/18 A3002 RMK A01 T03780180  RH  031%=      5-min Rain = 0
KCR1 201821Z 13005KT 38/18 A3002 RMK A01 T03780179  RH  031%=      5-min Rain = 0
KCR1 201822Z 13004KT 38/18 A3002 RMK A01 T03760180  RH  032%=      5-min Rain = 0
KCR1 201823Z 14005KT 38/18 A3002 RMK A01 T03770179  RH  031%=      5-min Rain = 0
KCR1 201824Z 13005KT 38/18 A3002 RMK A01 T03780179  RH  031%=      5-min Rain = 0
KCR1 201825Z 11003KT 38/18 A3002 RMK A01 T03800178  RH  031%=      5-min Rain = 0
KCR1 201826Z 22003G8KT 38/18 A3002 RMK A01 T03780176  RH  031%=      5-min Rain = 0
KCR1 201827Z 19010G17KT 38/18 A3002 RMK A01 T03770176  RH  031%=      5-min Rain = 0
KCR1 201828Z 18011KT 38/18 A3002 RMK A01 T03820180  RH  031%=      5-min Rain = 0
KCR1 201829Z 18012KT 39/18 A3002 RMK A01 T03880179  RH  030%=      5-min Rain = 0
KCR1 201830Z 18011G16KT 39/18 A3002 RMK A01 T03890177  RH  029%=      5-min Rain = 0
KCR1 201831Z 19010KT 39/18 A3002 RMK A01 T03860176  RH  029%=      5-min Rain = 0
KCR1 201832Z 19008KT 38/18 A3002 RMK A01 T03830177  RH  030%=      5-min Rain = 0
KCR1 201833Z 19007KT 38/18 A3002 RMK A01 T03820178  RH  030%=      5-min Rain = 0
KCR1 201834Z 21008KT 38/18 A3002 RMK A01 T03840175  RH  029%=      5-min Rain = 0
KCR1 201835Z 22004KT 38/17 A3002 RMK A01 T03830174  RH  030%=      5-min Rain = 0
KCR1 201836Z 18011KT 38/18 A3001 RMK A01 T03820177  RH  030%=      5-min Rain = 0
KCR1 201837Z 17009KT 38/18 A3002 RMK A01 T03830176  RH  030%=      5-min Rain = 0
KCR1 201838Z 18007KT 38/18 A3002 RMK A01 T03830175  RH  030%=      5-min Rain = 0
KCR1 201839Z 15006KT 38/18 A3002 RMK A01 T03800175  RH  030%=      5-min Rain = 0
KCR1 201840Z 16007KT 38/18 A3002 RMK A01 T03790176  RH  031%=      5-min Rain = 0
KCR1 201841Z 16010KT 38/18 A3001 RMK A01 T03770177  RH  031%=      5-min Rain = 0
KCR1 201842Z 16009KT 38/18 A3001 RMK A01 T03780176  RH  031%=      5-min Rain = 0
KCR1 201843Z 15007KT 38/18 A3001 RMK A01 T03760175  RH  031%=      5-min Rain = 0
KCR1 201844Z 15005KT 38/18 A3001 RMK A01 T03750175  RH  031%=      5-min Rain = 0
KCR1 201845Z 15008KT 38/18 A3001 RMK A01 T03780176  RH  031%=      5-min Rain = 0
KCR1 201846Z 15009KT 38/18 A3001 RMK A01 T03810177  RH  030%=      5-min Rain = 0
KCR1 201847Z 16010KT 38/18 A3001 RMK A01 T03840179  RH  030%=      5-min Rain = 0
KCR1 201848Z 16007KT 38/18 A3001 RMK A01 T03840180  RH  030%=      5-min Rain = 0
KCR1 201849Z 16006KT 39/18 A3001 RMK A01 T03880184  RH  030%=      5-min Rain = 0
KCR1 201850Z 15012KT 39/18 A3001 RMK A01 T03940183  RH  029%=      5-min Rain = 0
KCR1 201851Z 15007KT 39/18 A3001 RMK A01 T03910177  RH  029%=      5-min Rain = 0
KCR1 201852Z 17009KT 39/18 A3001 RMK A01 T03890181  RH  030%=      5-min Rain = 0
KCR1 201853Z 17010KT 39/18 A3001 RMK A01 T03930180  RH  029%=      5-min Rain = 0
KCR1 201854Z 15011KT 39/18 A3001 RMK A01 T03930179  RH  029%=      5-min Rain = 0
KCR1 201855Z 13013KT 40/18 A3001 RMK A01 T03950178  RH  028%=      5-min Rain = 0
KCR1 201856Z 14011KT 39/18 A3001 RMK A01 T03920175  RH  028%=      5-min Rain = 0
KCR1 201857Z 16009KT 39/18 A3001 RMK A01 T03900175  RH  029%=      5-min Rain = 0
KCR1 201858Z 15009KT 39/18 A3001 RMK A01 T03880176  RH  029%=      5-min Rain = 0
KCR1 201859Z 18008KT 39/18 A3001 RMK A01 T03890175  RH  029%=      5-min Rain = 0
KCR1 201900Z 17009KT 39/17 A3001 RMK A01 T03900174  RH  028%=      5-min Rain = 0
KCR1 201901Z 16008KT 39/17 A3001 RMK A01 T03880174  RH  029%=      5-min Rain = 0
KCR1 201902Z 15007KT 39/17 A3001 RMK A01 T03850172  RH  029%=      5-min Rain = 0
KCR1 201903Z 14006KT 38/17 A3001 RMK A01 T03820173  RH  029%=      5-min Rain = 0
KCR1 201904Z 17011KT 38/18 A3001 RMK A01 T03840177  RH  030%=      5-min Rain = 0
KCR1 201905Z 17008KT 39/18 A3001 RMK A01 T03850178  RH  030%=      5-min Rain = 0
KCR1 201906Z 17006KT 38/18 A3001 RMK A01 T03830178  RH  030%=      5-min Rain = 0
KCR1 201907Z 16006KT 38/18 A3001 RMK A01 T03800179  RH  031%=      5-min Rain = 0
KCR1 201908Z 16004KT 38/18 A3001 RMK A01 T03780178  RH  031%=      5-min Rain = 0
KCR1 201909Z 18003KT 38/18 A3001 RMK A01 T03750178  RH  032%=      5-min Rain = 0
KCR1 201910Z 21005KT 37/18 A3001 RMK A01 T03740177  RH  032%=      5-min Rain = 0
KCR1 201911Z 18005KT 38/18 A3001 RMK A01 T03750178  RH  032%=      5-min Rain = 0
KCR1 201912Z 21004KT 38/18 A3001 RMK A01 T03790180  RH  031%=      5-min Rain = 0
KCR1 201913Z 16006KT 38/18 A3001 RMK A01 T03820180  RH  031%=      5-min Rain = 0
KCR1 201914Z 14009KT 39/18 A30 RMK A01 T03850180  RH  030%=      5-min Rain = 0
KCR1 201915Z 16013KT 39/18 A3001 RMK A01 T03900182  RH  030%=      5-min Rain = 0
KCR1 201916Z 16011KT 39/18 A3001 RMK A01 T03930179  RH  029%=      5-min Rain = 0
KCR1 201917Z 15012KT 39/18 A30 RMK A01 T03910179  RH  029%=      5-min Rain = 0
KCR1 201918Z 17013KT 39/18 A30 RMK A01 T03920176  RH  028%=      5-min Rain = 0
KCR1 201919Z 18014KT 39/17 A30 RMK A01 T03920173  RH  028%=      5-min Rain = 0
KCR1 201920Z 18013KT 39/17 A30 RMK A01 T03920172  RH  028%=      5-min Rain = 0
KCR1 201921Z 19011KT 39/17 A30 RMK A01 T03900170  RH  028%=      5-min Rain = 0
KCR1 201922Z 19012KT 39/17 A30 RMK A01 T03890169  RH  028%=      5-min Rain = 0
KCR1 201923Z 18011KT 39/17 A30 RMK A01 T03910172  RH  028%=      5-min Rain = 0
KCR1 201924Z 19011KT 39/17 A3001 RMK A01 T03910173  RH  028%=      5-min Rain = 0
KCR1 201925Z 18010KT 39/18 A3001 RMK A01 T03920175  RH  028%=      5-min Rain = 0
KCR1 201926Z 19007KT 39/17 A3001 RMK A01 T03910173  RH  028%=      5-min Rain = 0
KCR1 201927Z 17010KT 39/17 A30 RMK A01 T03900170  RH  028%=      5-min Rain = 0
KCR1 201928Z 16011KT 39/17 A30 RMK A01 T03900174  RH  028%=      5-min Rain = 0
KCR1 201929Z 17008KT 39/17 A30 RMK A01 T03900173  RH  028%=      5-min Rain = 0
KCR1 201930Z 17011KT 39/17 A30 RMK A01 T03910170  RH  028%=      5-min Rain = 0
KCR1 201931Z 17009KT 39/17 A30 RMK A01 T03900173  RH  028%=      5-min Rain = 0
KCR1 201932Z 18012G17KT 39/17 A30 RMK A01 T03910174  RH  028%=      5-min Rain = 0
KCR1 201933Z 17012KT 39/18 A30 RMK A01 T03890175  RH  029%=      5-min Rain = 0
KCR1 201934Z 19007KT 39/18 A30 RMK A01 T03870176  RH  029%=      5-min Rain = 0
KCR1 201935Z 20007KT 39/17 A30 RMK A01 T03890172  RH  028%=      5-min Rain = 0
KCR1 201936Z 19008KT 39/17 A30 RMK A01 T03870171  RH  028%=      5-min Rain = 0
KCR1 201937Z 20009KT 39/17 A30 RMK A01 T03860173  RH  029%=      5-min Rain = 0
KCR1 201938Z 16004KT 39/17 A30 RMK A01 T03850172  RH  029%=      5-min Rain = 0
KCR1 201939Z 14008KT 38/18 A30 RMK A01 T03840175  RH  029%=      5-min Rain = 0
KCR1 201940Z 15006KT 39/18 A30 RMK A01 T03860175  RH  029%=      5-min Rain = 0
KCR1 201941Z 15007KT 39/18 A30 RMK A01 T03890177  RH  029%=      5-min Rain = 0
KCR1 201942Z 14008KT 39/18 A30 RMK A01 T03940180  RH  029%=      5-min Rain = 0
KCR1 201943Z 16012KT 40/18 A30 RMK A01 T03960177  RH  028%=      5-min Rain = 0
KCR1 201944Z 17013KT 39/18 A30 RMK A01 T03930175  RH  028%=      5-min Rain = 0
KCR1 201945Z 16011KT 39/18 A30 RMK A01 T03920175  RH  028%=      5-min Rain = 0
KCR1 201946Z 18010KT 39/17 A30 RMK A01 T03910173  RH  028%=      5-min Rain = 0
KCR1 201947Z 18014KT 39/17 A30 RMK A01 T03920172  RH  028%=      5-min Rain = 0
KCR1 201948Z 18010KT 39/17 A30 RMK A01 T03940171  RH  027%=      5-min Rain = 0
KCR1 201949Z 18011KT 39/17 A30 RMK A01 T03930171  RH  027%=      5-min Rain = 0
KCR1 201950Z 19014KT 39/18 A30 RMK A01 T03940175  RH  028%=      5-min Rain = 0
KCR1 201951Z 19011KT 39/18 A30 RMK A01 T03940177  RH  028%=      5-min Rain = 0
KCR1 201952Z 18008KT 39/18 A30 RMK A01 T03920177  RH  029%=      5-min Rain = 0
KCR1 201953Z 17010KT 39/18 A30 RMK A01 T03920176  RH  028%=      5-min Rain = 0
KCR1 201954Z 18012KT 39/17 A30 RMK A01 T03910174  RH  028%=      5-min Rain = 0
KCR1 201955Z 18010KT 39/17 A30 RMK A01 T03910174  RH  028%=      5-min Rain = 0
KCR1 201956Z 19010KT 39/17 A30 RMK A01 T03900173  RH  028%=      5-min Rain = 0
KCR1 201957Z 19008KT 39/17 A2999 RMK A01 T03910174  RH  028%=      5-min Rain = 0
KCR1 201958Z 21007KT 39/17 A2999 RMK A01 T03910172  RH  028%=      5-min Rain = 0
KCR1 201959Z 20006KT 39/17 A2999 RMK A01 T03890172  RH  028%=      5-min Rain = 0
KCR1 202000Z 21006KT 39/17 A2999 RMK A01 T03900173  RH  028%=      5-min Rain = 0
KCR1 202001Z 18007G14KT 39/17 A2999 RMK A01 T03910172  RH  028%=      5-min Rain = 0
KCR1 202002Z 18007KT 39/18 A2999 RMK A01 T03930175  RH  028%=      5-min Rain = 0
KCR1 202003Z 18009KT 40/17 A2999 RMK A01 T03960174  RH  027%=      5-min Rain = 0
KCR1 202004Z 18008KT 40/17 A2998 RMK A01 T03950174  RH  028%=      5-min Rain = 0
KCR1 202005Z 18014G29KT 39/17 A2998 RMK A01 T03940172  RH  027%=      5-min Rain = 0
KCR1 202006Z 16013KT 40/18 A2998 RMK A01 T03990175  RH  027%=      5-min Rain = 0
KCR1 202007Z 18014KT 40/17 A2999 RMK A01 T04010173  RH  027%=      5-min Rain = 0
KCR1 202008Z 20013KT 40/17 A2999 RMK A01 T04000168  RH  026%=      5-min Rain = 0
KCR1 202009Z 20012KT 40/16 A2998 RMK A01 T03980164  RH  026%=      5-min Rain = 0
KCR1 202010Z 17012KT 40/17 A2998 RMK A01 T03980166  RH  026%=      5-min Rain = 0
KCR1 202011Z 19012KT 40/17 A2998 RMK A01 T03950167  RH  026%=      5-min Rain = 0
KCR1 202012Z 20009KT 39/17 A2998 RMK A01 T03940166  RH  026%=      5-min Rain = 0
KCR1 202013Z 17007KT 39/17 A2998 RMK A01 T03920165  RH  027%=      5-min Rain = 0
KCR1 202014Z 14012KT 39/17 A2998 RMK A01 T03900167  RH  027%=      5-min Rain = 0
KCR1 202015Z 14009KT 39/17 A2998 RMK A01 T03910166  RH  027%=      5-min Rain = 0
KCR1 202016Z 14007KT 39/17 A2998 RMK A01 T03900167  RH  027%=      5-min Rain = 0
KCR1 202017Z 13010G15KT 39/17 A2998 RMK A01 T03880166  RH  027%=      5-min Rain = 0
KCR1 202018Z 12008KT 39/17 A2998 RMK A01 T03870165  RH  027%=      5-min Rain = 0
KCR1 202019Z 14005KT 39/16 A2998 RMK A01 T03860163  RH  027%=      5-min Rain = 0
KCR1 202020Z 11004KT 39/17 A2998 RMK A01 T03850165  RH  028%=      5-min Rain = 0
KCR1 202021Z 14006KT 39/17 A2998 RMK A01 T03900167  RH  027%=      5-min Rain = 0
KCR1 202022Z 13009G16KT 39/17 A2998 RMK A01 T03910165  RH  027%=      5-min Rain = 0
KCR1 202023Z 19014G25KT 39/16 A2998 RMK A01 T03920161  RH  026%=      5-min Rain = 0
KCR1 202024Z 18013KT 40/17 A2998 RMK A01 T03960165  RH  026%=      5-min Rain = 0
KCR1 202025Z 18013KT 40/17 A2998 RMK A01 T03970167  RH  026%=      5-min Rain = 0
KCR1 202026Z 16013KT 40/17 A2998 RMK A01 T03970167  RH  026%=      5-min Rain = 0
KCR1 202027Z 18014KT 40/17 A2998 RMK A01 T03970167  RH  026%=      5-min Rain = 0
KCR1 202028Z 17009G14KT 40/16 A2998 RMK A01 T03950160  RH  025%=      5-min Rain = 0
KCR1 202029Z 17009KT 39/16 A2998 RMK A01 T03920164  RH  026%=      5-min Rain = 0
KCR1 202030Z 16007KT 39/16 A2998 RMK A01 T03920164  RH  026%=      5-min Rain = 0
KCR1 202031Z 15008KT 39/16 A2998 RMK A01 T03910164  RH  026%=      5-min Rain = 0
KCR1 202032Z 15007KT 39/16 A2998 RMK A01 T03910161  RH  026%=      5-min Rain = 0
KCR1 202033Z 16005KT 39/16 A2998 RMK A01 T03900159  RH  026%=      5-min Rain = 0
KCR1 202034Z 16007KT 39/16 A2998 RMK A01 T03890163  RH  027%=      5-min Rain = 0
KCR1 202035Z 17004KT 39/16 A2998 RMK A01 T03910163  RH  026%=      5-min Rain = 0
KCR1 202036Z 16006KT 39/16 A2998 RMK A01 T03910164  RH  026%=      5-min Rain = 0
KCR1 202037Z 17008KT 39/17 A2998 RMK A01 T03930169  RH  027%=      5-min Rain = 0
KCR1 202038Z 15009G15KT 40/17 A2998 RMK A01 T03950171  RH  027%=      5-min Rain = 0
KCR1 202039Z 15017KT 40/17 A2997 RMK A01 T03980167  RH  026%=      5-min Rain = 0
KCR1 202040Z 16015KT 40/16 A2998 RMK A01 T03970164  RH  026%=      5-min Rain = 0
KCR1 202041Z 15013KT 40/16 A2998 RMK A01 T03960163  RH  026%=      5-min Rain = 0
KCR1 202042Z 15014G19KT 40/16 A2998 RMK A01 T03950162  RH  026%=      5-min Rain = 0
KCR1 202043Z 14012KT 39/16 A2997 RMK A01 T03930161  RH  026%=      5-min Rain = 0
KCR1 202044Z 14012KT 39/16 A2997 RMK A01 T03940161  RH  026%=      5-min Rain = 0
KCR1 202045Z 15013KT 40/16 A2997 RMK A01 T03950156  RH  025%=      5-min Rain = 0
KCR1 202046Z 17009KT 39/15 A2997 RMK A01 T03940152  RH  024%=      5-min Rain = 0
KCR1 202047Z 15012KT 39/15 A2997 RMK A01 T03940148  RH  024%=      5-min Rain = 0
KCR1 202048Z 14009KT 40/15 A2997 RMK A01 T03950148  RH  023%=      5-min Rain = 0
KCR1 202049Z 16013KT 40/16 A2997 RMK A01 T03950158  RH  025%=      5-min Rain = 0
KCR1 202050Z 16012KT 40/16 A2997 RMK A01 T03960160  RH  025%=      5-min Rain = 0
KCR1 202051Z 15012KT 40/16 A2997 RMK A01 T03960163  RH  026%=      5-min Rain = 0
KCR1 202052Z 16009KT 40/16 A2997 RMK A01 T03960162  RH  025%=      5-min Rain = 0
KCR1 202053Z 15010KT 40/16 A2997 RMK A01 T03970158  RH  025%=      5-min Rain = 0
KCR1 202054Z 13006KT 40/16 A2997 RMK A01 T03960158  RH  025%=      5-min Rain = 0
KCR1 202055Z 14005KT 40/16 A2997 RMK A01 T03950163  RH  026%=      5-min Rain = 0
KCR1 202056Z 15004KT 39/17 A2997 RMK A01 T03940165  RH  026%=      5-min Rain = 0
KCR1 202057Z 15008KT 39/17 A2997 RMK A01 T03910167  RH  027%=      5-min Rain = 0
KCR1 202058Z 18009KT 39/17 A2997 RMK A01 T03910171  RH  028%=      5-min Rain = 0
KCR1 202059Z 19008KT 39/17 A2997 RMK A01 T03930170  RH  027%=      5-min Rain = 0
KCR1 202100Z 20006KT 39/17 A2997 RMK A01 T03930170  RH  027%=      5-min Rain = 0
KCR1 202101Z 22004KT 39/17 A2997 RMK A01 T03920169  RH  027%=      5-min Rain = 0
KCR1 202102Z 18008G14KT 39/17 A2996 RMK A01 T03900169  RH  027%=      5-min Rain = 0
KCR1 202103Z 16013KT 39/17 A2996 RMK A01 T03900169  RH  027%=      5-min Rain = 0
KCR1 202104Z 18012G17KT 39/17 A2996 RMK A01 T03910167  RH  027%=      5-min Rain = 0
KCR1 202105Z 20016KT 40/17 A2996 RMK A01 T03950169  RH  027%=      5-min Rain = 0
KCR1 202106Z 20013KT 40/17 A2996 RMK A01 T04000171  RH  026%=      5-min Rain = 0
KCR1 202107Z 20011KT 40/17 A2996 RMK A01 T03970170  RH  027%=      5-min Rain = 0
KCR1 202108Z 19013KT 40/17 A2996 RMK A01 T03980171  RH  027%=      5-min Rain = 0
KCR1 202109Z 18008G13KT 40/17 A2996 RMK A01 T03950171  RH  027%=      5-min Rain = 0
KCR1 202110Z 17005KT 39/17 A2996 RMK A01 T03920170  RH  027%=      5-min Rain = 0
KCR1 202111Z 15006KT 39/17 A2996 RMK A01 T03920169  RH  027%=      5-min Rain = 0
KCR1 202112Z 15006KT 39/17 A2996 RMK A01 T03940169  RH  027%=      5-min Rain = 0
KCR1 202113Z 17007KT 39/17 A2996 RMK A01 T03940170  RH  027%=      5-min Rain = 0
KCR1 202114Z 18009KT 40/17 A2996 RMK A01 T03950171  RH  027%=      5-min Rain = 0
KCR1 202115Z 23010KT 40/16 A2996 RMK A01 T03970162  RH  025%=      5-min Rain = 0
KCR1 202116Z 19007KT 40/16 A2996 RMK A01 T03980161  RH  025%=      5-min Rain = 0
KCR1 202117Z 17007KT 40/16 A2996 RMK A01 T03990162  RH  025%=      5-min Rain = 0
KCR1 202118Z 18007KT 40/16 A2996 RMK A01 T03980161  RH  025%=      5-min Rain = 0
KCR1 202119Z 20012G21KT 40/17 A2996 RMK A01 T03970166  RH  026%=      5-min Rain = 0
KCR1 202120Z 14012G20KT 40/17 A2996 RMK A01 T03990170  RH  026%=      5-min Rain = 0
KCR1 202121Z 17014KT 40/17 A2996 RMK A01 T04000170  RH  026%=      5-min Rain = 0
KCR1 202122Z 16014KT 40/17 A2996 RMK A01 T03990170  RH  026%=      5-min Rain = 0
KCR1 202123Z 15012KT 40/17 A2996 RMK A01 T03980169  RH  026%=      5-min Rain = 0
KCR1 202124Z 14009KT 40/17 A2996 RMK A01 T03970169  RH  027%=      5-min Rain = 0
KCR1 202125Z 16006KT 40/17 A2996 RMK A01 T03970165  RH  026%=      5-min Rain = 0
KCR1 202126Z 12005KT 40/16 A2996 RMK A01 T03950164  RH  026%=      5-min Rain = 0
KCR1 202127Z 12010KT 39/17 A2996 RMK A01 T03940166  RH  026%=      5-min Rain = 0
KCR1 202128Z 15007KT 39/17 A2996 RMK A01 T03940167  RH  027%=      5-min Rain = 0
KCR1 202129Z 15008KT 40/17 A2996 RMK A01 T03950170  RH  027%=      5-min Rain = 0
KCR1 202130Z 17009KT 40/17 A2996 RMK A01 T03980168  RH  026%=      5-min Rain = 0
KCR1 202131Z 15013KT 40/17 A2996 RMK A01 T03960166  RH  026%=      5-min Rain = 0
KCR1 202132Z 17009KT 39/16 A2996 RMK A01 T03900163  RH  026%=      5-min Rain = 0
KCR1 202133Z 14011KT 39/16 A2996 RMK A01 T03880161  RH  027%=      5-min Rain = 0
KCR1 202134Z 14012KT 39/16 A2996 RMK A01 T03920163  RH  026%=      5-min Rain = 0
KCR1 202135Z 14010KT 39/16 A2996 RMK A01 T03940160  RH  025%=      5-min Rain = 0
KCR1 202136Z 13010KT 39/16 A2995 RMK A01 T03940163  RH  026%=      5-min Rain = 0
KCR1 202137Z 14008KT 39/16 A2995 RMK A01 T03930162  RH  026%=      5-min Rain = 0
KCR1 202138Z 13006KT 39/16 A2995 RMK A01 T03920160  RH  026%=      5-min Rain = 0
KCR1 202139Z 11006KT 39/16 A2995 RMK A01 T03930164  RH  026%=      5-min Rain = 0
KCR1 202140Z 09006KT 40/16 A2995 RMK A01 T03950163  RH  026%=      5-min Rain = 0
KCR1 202141Z 15007KT 39/16 A2995 RMK A01 T03940163  RH  026%=      5-min Rain = 0
KCR1 202142Z 18011KT 40/17 A2995 RMK A01 T03960166  RH  026%=      5-min Rain = 0
KCR1 202143Z 19011KT 40/16 A2995 RMK A01 T03980162  RH  025%=      5-min Rain = 0
KCR1 202144Z 18011KT 40/16 A2995 RMK A01 T03960162  RH  025%=      5-min Rain = 0
KCR1 202145Z 18012G17KT 40/16 A2995 RMK A01 T03950163  RH  026%=      5-min Rain = 0
KCR1 202146Z 20009KT 40/16 A2995 RMK A01 T03950162  RH  026%=      5-min Rain = 0
KCR1 202147Z 21009KT 39/16 A2995 RMK A01 T03930162  RH  026%=      5-min Rain = 0
KCR1 202148Z 19008KT 40/16 A2995 RMK A01 T03950163  RH  026%=      5-min Rain = 0
KCR1 202149Z 16010KT 40/16 A2995 RMK A01 T03960163  RH  026%=      5-min Rain = 0
KCR1 202150Z 16010KT 40/17 A2995 RMK A01 T03970165  RH  026%=      5-min Rain = 0
KCR1 202151Z 14012KT 40/16 A2995 RMK A01 T04000162  RH  025%=      5-min Rain = 0
KCR1 202152Z 14012KT 40/16 A2995 RMK A01 T03980161  RH  025%=      5-min Rain = 0
KCR1 202153Z 16013KT 40/16 A2995 RMK A01 T03970161  RH  025%=      5-min Rain = 0
KCR1 202154Z 16011KT 40/16 A2995 RMK A01 T03990164  RH  025%=      5-min Rain = 0
KCR1 202155Z 17010KT 40/16 A2995 RMK A01 T03970163  RH  025%=      5-min Rain = 0
KCR1 202156Z 17011KT 40/16 A2995 RMK A01 T03980162  RH  025%=      5-min Rain = 0
KCR1 202157Z 17007KT 40/16 A2995 RMK A01 T03980158  RH  025%=      5-min Rain = 0
KCR1 202158Z 18011KT 40/16 A2995 RMK A01 T03970158  RH  025%=      5-min Rain = 0
KCR1 202159Z 19009KT 40/16 A2995 RMK A01 T03970155  RH  024%=      5-min Rain = 0
KCR1 202200Z 18006KT 40/16 A2995 RMK A01 T03970155  RH  024%=      5-min Rain = 0
KCR1 202201Z 17007KT 40/16 A2995 RMK A01 T03960159  RH  025%=      5-min Rain = 0
KCR1 202202Z 17007KT 40/16 A2995 RMK A01 T03990160  RH  025%=      5-min Rain = 0
KCR1 202203Z 14010KT 40/16 A2995 RMK A01 T04010162  RH  025%=      5-min Rain = 0
KCR1 202204Z 14012KT 40/17 A2995 RMK A01 T04010168  RH  026%=      5-min Rain = 0
KCR1 202205Z 15007G12KT 40/17 A2995 RMK A01 T03980166  RH  026%=      5-min Rain = 0
KCR1 202206Z 15009G14KT 40/17 A2995 RMK A01 T03970168  RH  026%=      5-min Rain = 0
KCR1 202207Z 15013KT 40/17 A2995 RMK A01 T03980168  RH  026%=      5-min Rain = 0
KCR1 202208Z 13008KT 40/17 A2995 RMK A01 T03960166  RH  026%=      5-min Rain = 0
KCR1 202209Z 12009KT 39/17 A2995 RMK A01 T03930165  RH  026%=      5-min Rain = 0
KCR1 202210Z 12009KT 39/17 A2994 RMK A01 T03930166  RH  027%=      5-min Rain = 0
KCR1 202211Z 12011KT 39/17 A2994 RMK A01 T03940166  RH  026%=      5-min Rain = 0
KCR1 202212Z 13008KT 40/17 A2994 RMK A01 T03950165  RH  026%=      5-min Rain = 0
KCR1 202213Z 16007KT 40/17 A2995 RMK A01 T03950165  RH  026%=      5-min Rain = 0
KCR1 202214Z 19010KT 40/17 A2995 RMK A01 T03950165  RH  026%=      5-min Rain = 0
KCR1 202215Z 18013KT 40/16 A2994 RMK A01 T03970164  RH  026%=      5-min Rain = 0
KCR1 202216Z 19010KT 40/16 A2994 RMK A01 T03980163  RH  025%=      5-min Rain = 0
KCR1 202217Z 20011KT 40/16 A2994 RMK A01 T04000164  RH  025%=      5-min Rain = 0
KCR1 202218Z 20010KT 40/16 A2994 RMK A01 T04020161  RH  025%=      5-min Rain = 0
KCR1 202219Z 19009KT 40/16 A2994 RMK A01 T04010161  RH  025%=      5-min Rain = 0
KCR1 202220Z 18012KT 40/16 A2994 RMK A01 T04000161  RH  025%=      5-min Rain = 0
KCR1 202221Z 19009KT 40/16 A2994 RMK A01 T03990157  RH  024%=      5-min Rain = 0
KCR1 202222Z 18010KT 40/15 A2994 RMK A01 T03990154  RH  024%=      5-min Rain = 0
KCR1 202223Z 20008KT 40/16 A2994 RMK A01 T03980155  RH  024%=      5-min Rain = 0
KCR1 202224Z 21010KT 40/16 A2994 RMK A01 T03950158  RH  025%=      5-min Rain = 0
KCR1 202225Z 19008KT 39/16 A2994 RMK A01 T03930160  RH  026%=      5-min Rain = 0
KCR1 202226Z 18012G17KT 39/16 A2994 RMK A01 T03910161  RH  026%=      5-min Rain = 0
KCR1 202227Z 18012KT 39/16 A2994 RMK A01 T03910162  RH  026%=      5-min Rain = 0
KCR1 202228Z 18010G15KT 39/16 A2994 RMK A01 T03920162  RH  026%=      5-min Rain = 0
KCR1 202229Z 18014KT 39/16 A2994 RMK A01 T03940162  RH  026%=      5-min Rain = 0
KCR1 202230Z 18013KT 40/16 A2994 RMK A01 T03960162  RH  025%=      5-min Rain = 0
KCR1 202231Z 19013KT 40/16 A2994 RMK A01 T03960163  RH  026%=      5-min Rain = 0
KCR1 202232Z 19013KT 40/16 A2994 RMK A01 T03950161  RH  025%=      5-min Rain = 0
KCR1 202233Z 18010G16KT 39/16 A2994 RMK A01 T03940159  RH  025%=      5-min Rain = 0
KCR1 202234Z 18009G16KT 39/16 A2994 RMK A01 T03930160  RH  026%=      5-min Rain = 0
KCR1 202235Z 18007KT 39/16 A2994 RMK A01 T03920159  RH  026%=      5-min Rain = 0
KCR1 202236Z 18008KT 39/16 A2994 RMK A01 T03940160  RH  025%=      5-min Rain = 0
KCR1 202237Z 19006KT 40/16 A2994 RMK A01 T03950159  RH  025%=      5-min Rain = 0
KCR1 202238Z 18011KT 40/16 A2994 RMK A01 T03950159  RH  025%=      5-min Rain = 0
KCR1 202239Z 19008KT 40/16 A2994 RMK A01 T03960161  RH  025%=      5-min Rain = 0
KCR1 202240Z 19005KT 40/16 A2994 RMK A01 T03960160  RH  025%=      5-min Rain = 0
KCR1 202241Z 20005KT 40/16 A2994 RMK A01 T03960160  RH  025%=      5-min Rain = 0
KCR1 202242Z 19004KT 40/16 A2994 RMK A01 T03960159  RH  025%=      5-min Rain = 0
KCR1 202243Z 18005KT 40/16 A2994 RMK A01 T03960160  RH  025%=      5-min Rain = 0
KCR1 202244Z 15005G10KT 40/16 A2994 RMK A01 T03960160  RH  025%=      5-min Rain = 0
KCR1 202245Z 14012KT 40/16 A2994 RMK A01 T03970162  RH  025%=      5-min Rain = 0
KCR1 202246Z 15013KT 40/17 A2994 RMK A01 T03960167  RH  026%=      5-min Rain = 0
KCR1 202247Z 15012KT 40/17 A2994 RMK A01 T03970168  RH  026%=      5-min Rain = 0
KCR1 202248Z 14011KT 40/17 A2994 RMK A01 T03980166  RH  026%=      5-min Rain = 0
KCR1 202249Z 14014KT 40/17 A2994 RMK A01 T04000166  RH  026%=      5-min Rain = 0
KCR1 202250Z 14013KT 40/16 A2994 RMK A01 T03990162  RH  025%=      5-min Rain = 0
KCR1 202251Z 13010KT 40/16 A2994 RMK A01 T03950161  RH  025%=      5-min Rain = 0
KCR1 202252Z 15010KT 40/17 A2994 RMK A01 T03950165  RH  026%=      5-min Rain = 0
KCR1 202253Z 14010G15KT 40/16 A2994 RMK A01 T03970164  RH  026%=      5-min Rain = 0
KCR1 202254Z 14012KT 40/16 A2994 RMK A01 T03970164  RH  026%=      5-min Rain = 0
KCR1 202255Z 17011KT 40/16 A2994 RMK A01 T03960163  RH  026%=      5-min Rain = 0
KCR1 202256Z 16009KT 40/16 A2994 RMK A01 T03960161  RH  025%=      5-min Rain = 0
KCR1 202257Z 17009KT 40/16 A2994 RMK A01 T03960161  RH  025%=      5-min Rain = 0
KCR1 202258Z 17010KT 40/16 A2994 RMK A01 T03950161  RH  025%=      5-min Rain = 0
KCR1 202259Z 16009KT 40/16 A2994 RMK A01 T03950163  RH  026%=      5-min Rain = 0
KCR1 202300Z 17007KT 39/16 A2994 RMK A01 T03940164  RH  026%=      5-min Rain = 0
KCR1 202301Z 16011G16KT 39/17 A2994 RMK A01 T03940166  RH  026%=      5-min Rain = 0
KCR1 202302Z 18011KT 40/17 A2994 RMK A01 T03960168  RH  026%=      5-min Rain = 0
KCR1 202303Z 18012KT 40/17 A2994 RMK A01 T03980168  RH  026%=      5-min Rain = 0
KCR1 202304Z 16010G16KT 40/17 A2994 RMK A01 T03970170  RH  027%=      5-min Rain = 0
KCR1 202305Z 15014KT 40/17 A2994 RMK A01 T03960170  RH  027%=      5-min Rain = 0
KCR1 202306Z 14014KT 40/17 A2994 RMK A01 T03950169  RH  027%=      5-min Rain = 0
KCR1 202307Z 14011KT 39/17 A2994 RMK A01 T03930167  RH  027%=      5-min Rain = 0
KCR1 202308Z 14012KT 39/17 A2994 RMK A01 T03900167  RH  027%=      5-min Rain = 0
KCR1 202309Z 14011KT 39/17 A2994 RMK A01 T03910167  RH  027%=      5-min Rain = 0
KCR1 202310Z 14012KT 39/17 A2994 RMK A01 T03920165  RH  027%=      5-min Rain = 0
KCR1 202311Z 14014KT 39/16 A2994 RMK A01 T03930164  RH  026%=      5-min Rain = 0
KCR1 202312Z 14015KT 39/16 A2994 RMK A01 T03930163  RH  026%=      5-min Rain = 0
KCR1 202313Z 15011KT 39/16 A2994 RMK A01 T03910163  RH  026%=      5-min Rain = 0
KCR1 202314Z 15010KT 39/17 A2994 RMK A01 T03920165  RH  026%=      5-min Rain = 0
KCR1 202315Z 14011KT 40/16 A2994 RMK A01 T03950164  RH  026%=      5-min Rain = 0
KCR1 202316Z 13014KT 40/16 A2994 RMK A01 T03950164  RH  026%=      5-min Rain = 0
KCR1 202317Z 14012KT 39/16 A2994 RMK A01 T03930163  RH  026%=      5-min Rain = 0
KCR1 202318Z 13011KT 39/16 A2994 RMK A01 T03920163  RH  026%=      5-min Rain = 0
KCR1 202319Z 14015KT 39/16 A2994 RMK A01 T03920163  RH  026%=      5-min Rain = 0
KCR1 202320Z 15014KT 39/16 A2994 RMK A01 T03930164  RH  026%=      5-min Rain = 0
KCR1 202321Z 15014KT 39/16 A2994 RMK A01 T03930163  RH  026%=      5-min Rain = 0
KCR1 202322Z 15011KT 39/16 A2994 RMK A01 T03920163  RH  026%=      5-min Rain = 0
KCR1 202323Z 14010KT 39/16 A2994 RMK A01 T03900163  RH  026%=      5-min Rain = 0
KCR1 202324Z 13010KT 39/16 A2994 RMK A01 T03920164  RH  026%=      5-min Rain = 0
KCR1 202325Z 13010KT 39/16 A2994 RMK A01 T03920163  RH  026%=      5-min Rain = 0
KCR1 202326Z 13011KT 39/16 A2994 RMK A01 T03910164  RH  026%=      5-min Rain = 0
KCR1 202327Z 14009KT 39/16 A2994 RMK A01 T03910162  RH  026%=      5-min Rain = 0
KCR1 202328Z 14010KT 39/16 A2994 RMK A01 T03890163  RH  026%=      5-min Rain = 0
KCR1 202329Z 15010KT 39/16 A2994 RMK A01 T03890163  RH  027%=      5-min Rain = 0
KCR1 202330Z 16010KT 39/16 A2994 RMK A01 T03890163  RH  027%=      5-min Rain = 0
KCR1 202331Z 15010KT 39/16 A2994 RMK A01 T03890162  RH  026%=      5-min Rain = 0
KCR1 202332Z 14012KT 39/16 A2994 RMK A01 T03890163  RH  027%=      5-min Rain = 0
KCR1 202333Z 15013KT 39/16 A2994 RMK A01 T03890163  RH  027%=      5-min Rain = 0
KCR1 202334Z 16013KT 39/16 A2994 RMK A01 T03900163  RH  026%=      5-min Rain = 0
KCR1 202335Z 14011KT 39/16 A2994 RMK A01 T03900163  RH  026%=      5-min Rain = 0
KCR1 202336Z 14012KT 39/16 A2994 RMK A01 T03900162  RH  026%=      5-min Rain = 0
KCR1 202337Z 15013KT 39/16 A2994 RMK A01 T03890162  RH  027%=      5-min Rain = 0
KCR1 202338Z 16011KT 39/16 A2994 RMK A01 T03890162  RH  026%=      5-min Rain = 0
KCR1 202339Z 15009KT 39/16 A2994 RMK A01 T03900162  RH  026%=      5-min Rain = 0
KCR1 202340Z 15011G17KT 39/16 A2994 RMK A01 T03900163  RH  026%=      5-min Rain = 0
KCR1 202341Z 16013G18KT 39/16 A2994 RMK A01 T03900160  RH  026%=      5-min Rain = 0
KCR1 202342Z 15009KT 39/16 A2994 RMK A01 T03880160  RH  026%=      5-min Rain = 0
KCR1 202343Z 15011KT 39/16 A2994 RMK A01 T03870161  RH  027%=      5-min Rain = 0
KCR1 202344Z 15012KT 39/16 A2994 RMK A01 T03870161  RH  027%=      5-min Rain = 0
KCR1 202345Z 15010KT 39/16 A2994 RMK A01 T03860161  RH  027%=      5-min Rain = 0
KCR1 202346Z 15011KT 39/16 A2994 RMK A01 T03860162  RH  027%=      5-min Rain = 0
KCR1 202347Z 15010KT 39/16 A2994 RMK A01 T03850162  RH  027%=      5-min Rain = 0
KCR1 202348Z 15012KT 39/16 A2994 RMK A01 T03850161  RH  027%=      5-min Rain = 0
KCR1 202349Z 15010KT 39/16 A2994 RMK A01 T03850160  RH  027%=      5-min Rain = 0
KCR1 202350Z 16008KT 38/16 A2994 RMK A01 T03840159  RH  027%=      5-min Rain = 0
KCR1 202351Z 15007KT 38/16 A2994 RMK A01 T03840161  RH  027%=      5-min Rain = 0
KCR1 202352Z 15006KT 39/16 A2994 RMK A01 T03860162  RH  027%=      5-min Rain = 0
KCR1 202353Z 16009KT 39/16 A2994 RMK A01 T03870161  RH  027%=      5-min Rain = 0
KCR1 202354Z 17012KT 39/16 A2994 RMK A01 T03870160  RH  026%=      5-min Rain = 0
KCR1 202355Z 16013KT 39/16 A2994 RMK A01 T03860158  RH  026%=      5-min Rain = 0
KCR1 202356Z 16015KT 39/16 A2994 RMK A01 T03850158  RH  026%=      5-min Rain = 0
KCR1 202357Z 14012KT 38/16 A2994 RMK A01 T03840159  RH  027%=      5-min Rain = 0
KCR1 202358Z 15012KT 38/16 A2994 RMK A01 T03840159  RH  027%=      5-min Rain = 0
KCR1 202359Z 16012KT 38/16 A2994 RMK A01 T03840159  RH  027%=      5-min Rain = 0
KCR1 210000Z 16013KT 38/16 A2994 RMK A01 T03830159  RH  027%=      5-min Rain = 0
KCR1 210001Z 16013KT 38/16 A2994 RMK A01 T03830158  RH  027%=      5-min Rain = 0
KCR1 210002Z 17012KT 38/16 A2994 RMK A01 T03830158  RH  027%=      5-min Rain = 0
KCR1 210003Z 16011KT 38/16 A2994 RMK A01 T03830158  RH  027%=      5-min Rain = 0
KCR1 210004Z 16011KT 38/16 A2994 RMK A01 T03830158  RH  027%=      5-min Rain = 0
KCR1 210005Z 16013KT 38/16 A2994 RMK A01 T03830158  RH  027%=      5-min Rain = 0
KCR1 210006Z 16011KT 38/16 A2994 RMK A01 T03830158  RH  027%=      5-min Rain = 0
KCR1 210007Z 15012KT 38/16 A2994 RMK A01 T03820158  RH  027%=      5-min Rain = 0
KCR1 210008Z 16011KT 38/16 A2994 RMK A01 T03800158  RH  027%=      5-min Rain = 0
KCR1 210009Z 15011KT 38/16 A2994 RMK A01 T03800159  RH  027%=      5-min Rain = 0
KCR1 210010Z 16012KT 38/16 A2994 RMK A01 T03800159  RH  027%=      5-min Rain = 0
KCR1 210011Z 16012KT 38/16 A2994 RMK A01 T03800159  RH  027%=      5-min Rain = 0
KCR1 210012Z 16013KT 38/16 A2994 RMK A01 T03800159  RH  027%=      5-min Rain = 0
KCR1 210013Z 16014KT 38/16 A2994 RMK A01 T03800160  RH  027%=      5-min Rain = 0
KCR1 210014Z 16013KT 38/16 A2994 RMK A01 T03800160  RH  027%=      5-min Rain = 0
KCR1 210015Z 15013KT 38/16 A2994 RMK A01 T03790161  RH  028%=      5-min Rain = 0
KCR1 210016Z 16012KT 38/16 A2994 RMK A01 T03790161  RH  028%=      5-min Rain = 0
KCR1 210017Z 15012KT 38/16 A2994 RMK A01 T03780161  RH  028%=      5-min Rain = 0
KCR1 210018Z 15013KT 38/16 A2994 RMK A01 T03770161  RH  028%=      5-min Rain = 0
KCR1 210019Z 15012KT 38/16 A2994 RMK A01 T03770161  RH  028%=      5-min Rain = 0
KCR1 210020Z 15013KT 38/16 A2994 RMK A01 T03770161  RH  028%=      5-min Rain = 0
KCR1 210021Z 16013KT 38/16 A2994 RMK A01 T03770161  RH  028%=      5-min Rain = 0
KCR1 210022Z 16014KT 38/16 A2994 RMK A01 T03770161  RH  028%=      5-min Rain = 0
KCR1 210023Z 16013KT 38/16 A2994 RMK A01 T03760161  RH  028%=      5-min Rain = 0
KCR1 210024Z 16011G16KT 38/16 A2994 RMK A01 T03750160  RH  028%=      5-min Rain = 0
KCR1 210025Z 15014KT 38/16 A2994 RMK A01 T03750161  RH  028%=      5-min Rain = 0
KCR1 210026Z 15013KT 38/16 A2994 RMK A01 T03750160  RH  028%=      5-min Rain = 0
KCR1 210027Z 16010KT 37/16 A2994 RMK A01 T03740160  RH  028%=      5-min Rain = 0
KCR1 210028Z 16011KT 37/16 A2994 RMK A01 T03740160  RH  028%=      5-min Rain = 0
KCR1 210029Z 15009KT 37/16 A2994 RMK A01 T03740159  RH  028%=      5-min Rain = 0
KCR1 210030Z 14008KT 37/16 A2994 RMK A01 T03740159  RH  028%=      5-min Rain = 0
KCR1 210031Z 15011KT 37/16 A2994 RMK A01 T03730159  RH  028%=      5-min Rain = 0
KCR1 210032Z 15010KT 37/16 A2994 RMK A01 T03730160  RH  028%=      5-min Rain = 0
KCR1 210033Z 16011KT 37/16 A2994 RMK A01 T03730159  RH  028%=      5-min Rain = 0
KCR1 210034Z 16008KT 37/16 A2995 RMK A01 T03730160  RH  028%=      5-min Rain = 0
KCR1 210035Z 17008KT 37/16 A2995 RMK A01 T03730160  RH  029%=      5-min Rain = 0
KCR1 210036Z 17008KT 37/16 A2995 RMK A01 T03730161  RH  029%=      5-min Rain = 0
KCR1 210037Z 16010KT 37/16 A2995 RMK A01 T03730161  RH  029%=      5-min Rain = 0
KCR1 210038Z 17009KT 37/16 A2995 RMK A01 T03720160  RH  029%=      5-min Rain = 0
KCR1 210039Z 16011KT 37/16 A2995 RMK A01 T03720160  RH  029%=      5-min Rain = 0
KCR1 210040Z 17010KT 37/16 A2995 RMK A01 T03710159  RH  029%=      5-min Rain = 0
KCR1 210041Z 17010KT 37/16 A2994 RMK A01 T03710158  RH  028%=      5-min Rain = 0
KCR1 210042Z 16012KT 37/16 A2994 RMK A01 T03710157  RH  028%=      5-min Rain = 0
KCR1 210043Z 16012KT 37/16 A2994 RMK A01 T03710157  RH  028%=      5-min Rain = 0
KCR1 210044Z 15012KT 37/16 A2994 RMK A01 T03700156  RH  028%=      5-min Rain = 0
KCR1 210045Z 15012KT 37/16 A2994 RMK A01 T03700156  RH  028%=      5-min Rain = 0
KCR1 210046Z 15011KT 37/16 A2995 RMK A01 T03700156  RH  028%=      5-min Rain = 0
KCR1 210047Z 16012KT 37/16 A2995 RMK A01 T03690156  RH  028%=      5-min Rain = 0
KCR1 210048Z 16010KT 37/16 A2995 RMK A01 T03690156  RH  028%=      5-min Rain = 0
KCR1 210049Z 16011KT 37/16 A2995 RMK A01 T03680156  RH  029%=      5-min Rain = 0
KCR1 210050Z 16011KT 37/16 A2995 RMK A01 T03680157  RH  029%=      5-min Rain = 0
KCR1 210051Z 16011KT 37/16 A2995 RMK A01 T03670157  RH  029%=      5-min Rain = 0
KCR1 210052Z 16012KT 37/16 A2995 RMK A01 T03660156  RH  029%=      5-min Rain = 0
KCR1 210053Z 16013KT 37/16 A2995 RMK A01 T03660156  RH  029%=      5-min Rain = 0
KCR1 210054Z 16011KT 37/16 A2995 RMK A01 T03660156  RH  029%=      5-min Rain = 0
KCR1 210055Z 16012KT 37/16 A2995 RMK A01 T03660155  RH  029%=      5-min Rain = 0
KCR1 210056Z 16012KT 37/16 A2995 RMK A01 T03650155  RH  029%=      5-min Rain = 0
KCR1 210057Z 16011KT 37/16 A2995 RMK A01 T03650156  RH  029%=      5-min Rain = 0
KCR1 210058Z 16009KT 36/16 A2995 RMK A01 T03640156  RH  029%=      5-min Rain = 0
KCR1 210059Z 16008KT 36/16 A2995 RMK A01 T03640157  RH  029%=      5-min Rain = 0
KCR1 210100Z 16009KT 36/16 A2995 RMK A01 T03620157  RH  029%=      5-min Rain = 0
KCR1 210101Z 15010KT 36/16 A2995 RMK A01 T03620157  RH  030%=      5-min Rain = 0
KCR1 210102Z 15009KT 36/16 A2995 RMK A01 T03620158  RH  030%=      5-min Rain = 0
KCR1 210103Z 16013KT 36/16 A2995 RMK A01 T03620158  RH  030%=      5-min Rain = 0
KCR1 210104Z 16012KT 36/16 A2995 RMK A01 T03620159  RH  030%=      5-min Rain = 0
KCR1 210105Z 16011KT 36/16 A2995 RMK A01 T03620159  RH  030%=      5-min Rain = 0
KCR1 210106Z 16010KT 36/16 A2995 RMK A01 T03620159  RH  030%=      5-min Rain = 0
KCR1 210107Z 17009KT 36/16 A2996 RMK A01 T03610160  RH  030%=      5-min Rain = 0
KCR1 210108Z 17009KT 36/16 A2996 RMK A01 T03610160  RH  030%=      5-min Rain = 0
KCR1 210109Z 16009KT 36/16 A2996 RMK A01 T03600159  RH  030%=      5-min Rain = 0
KCR1 210110Z 16010KT 36/16 A2996 RMK A01 T03590160  RH  031%=      5-min Rain = 0
KCR1 210111Z 17009KT 36/16 A2996 RMK A01 T03590159  RH  031%=      5-min Rain = 0
KCR1 210112Z 16009KT 36/16 A2996 RMK A01 T03580159  RH  031%=      5-min Rain = 0
KCR1 210113Z 16010KT 36/16 A2996 RMK A01 T03570159  RH  031%=      5-min Rain = 0
KCR1 210114Z 17009KT 36/16 A2996 RMK A01 T03560159  RH  031%=      5-min Rain = 0
KCR1 210115Z 17009KT 36/16 A2996 RMK A01 T03560159  RH  031%=      5-min Rain = 0
KCR1 210116Z 16008KT 36/16 A2996 RMK A01 T03560159  RH  031%=      5-min Rain = 0
KCR1 210117Z 16008KT 36/16 A2996 RMK A01 T03550158  RH  031%=      5-min Rain = 0
KCR1 210118Z 16008KT 35/16 A2996 RMK A01 T03540158  RH  031%=      5-min Rain = 0
KCR1 210119Z 16009KT 35/16 A2996 RMK A01 T03530158  RH  031%=      5-min Rain = 0
KCR1 210120Z 16009KT 35/16 A2996 RMK A01 T03530158  RH  031%=      5-min Rain = 0
KCR1 210121Z 16008KT 35/16 A2996 RMK A01 T03530158  RH  031%=      5-min Rain = 0
KCR1 210122Z 16008KT 35/16 A2996 RMK A01 T03520158  RH  032%=      5-min Rain = 0
KCR1 210123Z 16008KT 35/16 A2996 RMK A01 T03500158  RH  032%=      5-min Rain = 0
KCR1 210124Z 16008KT 35/16 A2996 RMK A01 T03500158  RH  032%=      5-min Rain = 0
KCR1 210125Z 16008KT 35/16 A2996 RMK A01 T03490157  RH  032%=      5-min Rain = 0
KCR1 210126Z 16008KT 35/16 A2995 RMK A01 T03480157  RH  032%=      5-min Rain = 0
KCR1 210127Z 16008KT 35/16 A2995 RMK A01 T03470157  RH  032%=      5-min Rain = 0
KCR1 210128Z 16008KT 35/16 A2995 RMK A01 T03460157  RH  032%=      5-min Rain = 0
KCR1 210129Z 16007KT 35/16 A2995 RMK A01 T03450157  RH  032%=      5-min Rain = 0
KCR1 210130Z 16008KT 35/16 A2995 RMK A01 T03450157  RH  033%=      5-min Rain = 0
KCR1 210131Z 16008KT 34/16 A2996 RMK A01 T03440156  RH  033%=      5-min Rain = 0
KCR1 210132Z 16008KT 34/16 A2996 RMK A01 T03440156  RH  033%=      5-min Rain = 0
KCR1 210133Z 16008KT 34/16 A2996 RMK A01 T03440156  RH  032%=      5-min Rain = 0
KCR1 210134Z 16008KT 34/16 A2996 RMK A01 T03440155  RH  032%=      5-min Rain = 0
KCR1 210135Z 17009KT 35/16 A2996 RMK A01 T03450156  RH  032%=      5-min Rain = 0
KCR1 210136Z 17009KT 34/16 A2996 RMK A01 T03440155  RH  032%=      5-min Rain = 0
KCR1 210137Z 17008KT 34/16 A2996 RMK A01 T03440155  RH  032%=      5-min Rain = 0
KCR1 210138Z 17008KT 34/16 A2996 RMK A01 T03440155  RH  032%=      5-min Rain = 0
KCR1 210139Z 17009KT 34/16 A2996 RMK A01 T03440155  RH  032%=      5-min Rain = 0
KCR1 210140Z 17009KT 34/16 A2996 RMK A01 T03440156  RH  032%=      5-min Rain = 0
KCR1 210141Z 17009KT 34/16 A2996 RMK A01 T03440155  RH  032%=      5-min Rain = 0
KCR1 210142Z 17008KT 35/16 A2996 RMK A01 T03450156  RH  032%=      5-min Rain = 0
KCR1 210143Z 17008KT 35/16 A2996 RMK A01 T03450156  RH  032%=      5-min Rain = 0
KCR1 210144Z 16009KT 34/16 A2996 RMK A01 T03440156  RH  033%=      5-min Rain = 0
KCR1 210145Z 16008KT 34/16 A2996 RMK A01 T03430156  RH  033%=      5-min Rain = 0
KCR1 210146Z 17008KT 34/16 A2996 RMK A01 T03430156  RH  033%=      5-min Rain = 0
KCR1 210147Z 17008KT 34/16 A2996 RMK A01 T03410156  RH  033%=      5-min Rain = 0
KCR1 210148Z 17008KT 34/16 A2996 RMK A01 T03400156  RH  033%=      5-min Rain = 0
KCR1 210149Z 17007KT 34/16 A2996 RMK A01 T03400156  RH  033%=      5-min Rain = 0
KCR1 210150Z 17008KT 34/16 A2996 RMK A01 T03390156  RH  033%=      5-min Rain = 0
KCR1 210151Z 17007KT 34/16 A2996 RMK A01 T03390156  RH  034%=      5-min Rain = 0
KCR1 210152Z 17007KT 34/16 A2996 RMK A01 T03380156  RH  034%=      5-min Rain = 0
KCR1 210153Z 17007KT 34/16 A2996 RMK A01 T03370156  RH  034%=      5-min Rain = 0
KCR1 210154Z 17007KT 34/16 A2996 RMK A01 T03370156  RH  034%=      5-min Rain = 0
KCR1 210155Z 17007KT 34/16 A2996 RMK A01 T03360156  RH  034%=      5-min Rain = 0
KCR1 210156Z 17007KT 34/16 A2996 RMK A01 T03360156  RH  034%=      5-min Rain = 0
KCR1 210157Z 17007KT 34/16 A2996 RMK A01 T03350156  RH  034%=      5-min Rain = 0
KCR1 210158Z 17008KT 34/16 A2996 RMK A01 T03350156  RH  034%=      5-min Rain = 0
KCR1 210159Z 17007KT 34/16 A2996 RMK A01 T03350156  RH  034%=      5-min Rain = 0
KCR1 210200Z 17007KT 34/16 A2996 RMK A01 T03350156  RH  034%=      5-min Rain = 0
KCR1 210201Z 17007KT 33/16 A2996 RMK A01 T03340156  RH  034%=      5-min Rain = 0
KCR1 210202Z 17007KT 33/16 A2996 RMK A01 T03340156  RH  034%=      5-min Rain = 0
KCR1 210203Z 16008KT 33/16 A2996 RMK A01 T03330156  RH  034%=      5-min Rain = 0
KCR1 210204Z 17008KT 33/16 A2996 RMK A01 T03330156  RH  034%=      5-min Rain = 0
KCR1 210205Z 17008KT 33/16 A2996 RMK A01 T03340156  RH  034%=      5-min Rain = 0
KCR1 210206Z 17008KT 34/16 A2996 RMK A01 T03350156  RH  034%=      5-min Rain = 0
KCR1 210207Z 17009KT 34/16 A2996 RMK A01 T03350156  RH  034%=      5-min Rain = 0
KCR1 210208Z 17008KT 34/16 A2996 RMK A01 T03360157  RH  034%=      5-min Rain = 0
KCR1 210209Z 17008KT 34/16 A2996 RMK A01 T03360156  RH  034%=      5-min Rain = 0
KCR1 210210Z 17008KT 34/16 A2996 RMK A01 T03360156  RH  034%=      5-min Rain = 0
KCR1 210211Z 17008KT 34/16 A2996 RMK A01 T03360157  RH  034%=      5-min Rain = 0
KCR1 210212Z 17008KT 34/16 A2996 RMK A01 T03350157  RH  034%=      5-min Rain = 0
KCR1 210213Z 17008KT 34/16 A2996 RMK A01 T03350157  RH  034%=      5-min Rain = 0
KCR1 210214Z 17009KT 34/16 A2996 RMK A01 T03350158  RH  035%=      5-min Rain = 0
KCR1 210215Z 17009KT 34/16 A2996 RMK A01 T03350158  RH  035%=      5-min Rain = 0
KCR1 210216Z 16008KT 34/16 A2996 RMK A01 T03350158  RH  035%=      5-min Rain = 0
KCR1 210217Z 17008KT 34/16 A2996 RMK A01 T03350158  RH  035%=      5-min Rain = 0
KCR1 210218Z 17008KT 34/16 A2996 RMK A01 T03350159  RH  035%=      5-min Rain = 0
KCR1 210219Z 17008KT 34/16 A2996 RMK A01 T03350160  RH  035%=      5-min Rain = 0
KCR1 210220Z 16008KT 34/16 A2997 RMK A01 T03350160  RH  035%=      5-min Rain = 0
KCR1 210221Z 16009KT 34/16 A2997 RMK A01 T03350160  RH  035%=      5-min Rain = 0
KCR1 210222Z 16008KT 34/16 A2997 RMK A01 T03350161  RH  035%=      5-min Rain = 0
KCR1 210223Z 16008KT 34/16 A2997 RMK A01 T03350161  RH  035%=      5-min Rain = 0
KCR1 210224Z 16008KT 34/16 A2997 RMK A01 T03350162  RH  036%=      5-min Rain = 0
KCR1 210225Z 16008KT 33/16 A2997 RMK A01 T03340162  RH  036%=      5-min Rain = 0
KCR1 210226Z 16008KT 33/16 A2997 RMK A01 T03330162  RH  036%=      5-min Rain = 0
KCR1 210227Z 16008KT 33/16 A2997 RMK A01 T03330162  RH  036%=      5-min Rain = 0
KCR1 210228Z 16007KT 33/16 A2997 RMK A01 T03320162  RH  036%=      5-min Rain = 0
KCR1 210229Z 16007KT 33/16 A2997 RMK A01 T03320162  RH  036%=      5-min Rain = 0
KCR1 210230Z 16007KT 33/16 A2997 RMK A01 T03310163  RH  037%=      5-min Rain = 0
KCR1 210231Z 16007KT 33/16 A2997 RMK A01 T03300162  RH  037%=      5-min Rain = 0
KCR1 210232Z 16007KT 33/16 A2997 RMK A01 T03290163  RH  037%=      5-min Rain = 0
KCR1 210233Z 16007KT 33/16 A2997 RMK A01 T03290163  RH  037%=      5-min Rain = 0
KCR1 210234Z 16007KT 33/16 A2997 RMK A01 T03280163  RH  037%=      5-min Rain = 0
KCR1 210235Z 16007KT 33/16 A2997 RMK A01 T03280163  RH  037%=      5-min Rain = 0
KCR1 210236Z 16007KT 33/16 A2997 RMK A01 T03280163  RH  037%=      5-min Rain = 0
KCR1 210237Z 16007KT 33/16 A2997 RMK A01 T03270163  RH  037%=      5-min Rain = 0
KCR1 210238Z 16007KT 33/16 A2997 RMK A01 T03270163  RH  037%=      5-min Rain = 0
KCR1 210239Z 16007KT 33/16 A2997 RMK A01 T03270163  RH  038%=      5-min Rain = 0
KCR1 210240Z 16007KT 33/16 A2998 RMK A01 T03260163  RH  038%=      5-min Rain = 0
KCR1 210241Z 16008KT 33/16 A2998 RMK A01 T03260163  RH  038%=      5-min Rain = 0
KCR1 210242Z 16007KT 33/16 A2998 RMK A01 T03250163  RH  038%=      5-min Rain = 0
KCR1 210243Z 16007KT 33/16 A2998 RMK A01 T03250163  RH  038%=      5-min Rain = 0
KCR1 210244Z 16007KT 33/16 A2998 RMK A01 T03250164  RH  038%=      5-min Rain = 0
KCR1 210245Z 16006KT 33/16 A2998 RMK A01 T03250164  RH  038%=      5-min Rain = 0
KCR1 210246Z 16006KT 32/16 A2998 RMK A01 T03240164  RH  038%=      5-min Rain = 0
KCR1 210247Z 16007KT 32/16 A2998 RMK A01 T03240164  RH  038%=      5-min Rain = 0
KCR1 210248Z 15007KT 32/16 A2998 RMK A01 T03230164  RH  039%=      5-min Rain = 0
KCR1 210249Z 16006KT 32/17 A2998 RMK A01 T03240165  RH  039%=      5-min Rain = 0
KCR1 210250Z 15007KT 32/17 A2998 RMK A01 T03230165  RH  039%=      5-min Rain = 0
KCR1 210251Z 15007KT 32/17 A2998 RMK A01 T03230165  RH  039%=      5-min Rain = 0
KCR1 210252Z 16007KT 32/17 A2998 RMK A01 T03220165  RH  039%=      5-min Rain = 0
KCR1 210253Z 16007KT 32/17 A2999 RMK A01 T03220165  RH  039%=      5-min Rain = 0
KCR1 210254Z 16007KT 32/17 A2999 RMK A01 T03220165  RH  039%=      5-min Rain = 0
KCR1 210255Z 16006KT 32/17 A2999 RMK A01 T03210165  RH  039%=      5-min Rain = 0
KCR1 210256Z 16007KT 32/17 A2999 RMK A01 T03210165  RH  039%=      5-min Rain = 0
KCR1 210257Z 16006KT 32/17 A2999 RMK A01 T03200165  RH  039%=      5-min Rain = 0
KCR1 210258Z 16006KT 32/17 A2999 RMK A01 T03200166  RH  040%=      5-min Rain = 0
KCR1 210259Z 16006KT 32/17 A2999 RMK A01 T03190166  RH  040%=      5-min Rain = 0
KCR1 210300Z 16006KT 32/17 A2999 RMK A01 T03180165  RH  040%=      5-min Rain = 0
KCR1 210301Z 16005KT 32/17 A2999 RMK A01 T03180166  RH  040%=      5-min Rain = 0
KCR1 210302Z 16006KT 32/17 A2999 RMK A01 T03170165  RH  040%=      5-min Rain = 0
KCR1 210303Z 16006KT 32/17 A2999 RMK A01 T03160165  RH  040%=      5-min Rain = 0
KCR1 210304Z 16006KT 32/17 A2999 RMK A01 T03150166  RH  041%=      5-min Rain = 0
KCR1 210305Z 16005KT 32/17 A2999 RMK A01 T03150166  RH  041%=      5-min Rain = 0
KCR1 210306Z 16005KT 31/17 A2999 RMK A01 T03140166  RH  041%=      5-min Rain = 0
KCR1 210307Z 16005KT 31/17 A2999 RMK A01 T03130166  RH  041%=      5-min Rain = 0
KCR1 210308Z 16005KT 31/17 A2999 RMK A01 T03130166  RH  041%=      5-min Rain = 0
KCR1 210309Z 16005KT 31/17 A2999 RMK A01 T03120166  RH  041%=      5-min Rain = 0
KCR1 210310Z 16005KT 31/17 A2999 RMK A01 T03120166  RH  042%=      5-min Rain = 0
KCR1 210311Z 16005KT 31/17 A2999 RMK A01 T03120166  RH  042%=      5-min Rain = 0
KCR1 210312Z 16005KT 31/17 A30 RMK A01 T03120167  RH  042%=      5-min Rain = 0
KCR1 210313Z 16005KT 31/17 A30 RMK A01 T03110167  RH  042%=      5-min Rain = 0
KCR1 210314Z 16005KT 31/17 A30 RMK A01 T03110167  RH  042%=      5-min Rain = 0
KCR1 210315Z 16005KT 31/17 A30 RMK A01 T03100167  RH  042%=      5-min Rain = 0
KCR1 210316Z 16005KT 31/17 A30 RMK A01 T03100167  RH  042%=      5-min Rain = 0
KCR1 210317Z 16005KT 31/17 A30 RMK A01 T03100167  RH  042%=      5-min Rain = 0
KCR1 210318Z 16005KT 31/17 A30 RMK A01 T03090167  RH  042%=      5-min Rain = 0
KCR1 210319Z 16005KT 31/17 A30 RMK A01 T03080167  RH  043%=      5-min Rain = 0
KCR1 210320Z 16005KT 31/17 A30 RMK A01 T03080167  RH  043%=      5-min Rain = 0
KCR1 210321Z 16005KT 31/17 A30 RMK A01 T03080167  RH  043%=      5-min Rain = 0
KCR1 210322Z 16004KT 31/17 A30 RMK A01 T03070167  RH  043%=      5-min Rain = 0
KCR1 210323Z 15005KT 31/17 A30 RMK A01 T03060167  RH  043%=      5-min Rain = 0
KCR1 210324Z 14005KT 31/17 A30 RMK A01 T03060168  RH  043%=      5-min Rain = 0
KCR1 210325Z 15006KT 31/17 A30 RMK A01 T03050168  RH  044%=      5-min Rain = 0
KCR1 210326Z 15006KT 30/17 A30 RMK A01 T03040167  RH  044%=      5-min Rain = 0
KCR1 210327Z 16005KT 30/17 A30 RMK A01 T03040167  RH  044%=      5-min Rain = 0
KCR1 210328Z 15005KT 30/17 A30 RMK A01 T03040167  RH  044%=      5-min Rain = 0
KCR1 210329Z 15005KT 30/17 A30 RMK A01 T03040167  RH  044%=      5-min Rain = 0
KCR1 210330Z 15005KT 30/17 A30 RMK A01 T03040168  RH  044%=      5-min Rain = 0
KCR1 210331Z 15005KT 30/17 A30 RMK A01 T03030167  RH  044%=      5-min Rain = 0
KCR1 210332Z 15005KT 30/17 A30 RMK A01 T03030168  RH  044%=      5-min Rain = 0
KCR1 210333Z 15005KT 30/17 A30 RMK A01 T03020167  RH  044%=      5-min Rain = 0
KCR1 210334Z 15005KT 30/17 A30 RMK A01 T03020167  RH  044%=      5-min Rain = 0
KCR1 210335Z 15005KT 30/17 A30 RMK A01 T03020167  RH  044%=      5-min Rain = 0
KCR1 210336Z 15005KT 30/17 A30 RMK A01 T03020168  RH  044%=      5-min Rain = 0
KCR1 210337Z 15005KT 30/17 A30 RMK A01 T03010168  RH  045%=      5-min Rain = 0
KCR1 210338Z 15005KT 30/17 A30 RMK A01 T03010168  RH  045%=      5-min Rain = 0
KCR1 210339Z 15006KT 30/17 A30 RMK A01 T03010168  RH  045%=      5-min Rain = 0
KCR1 210340Z 15006KT 30/17 A30 RMK A01 T03010168  RH  045%=      5-min Rain = 0
KCR1 210341Z 15006KT 30/17 A30 RMK A01 T03000168  RH  045%=      5-min Rain = 0
KCR1 210342Z 15005KT 30/17 A30 RMK A01 T03000168  RH  045%=      5-min Rain = 0
KCR1 210343Z 15005KT 30/17 A30 RMK A01 T03000168  RH  045%=      5-min Rain = 0
KCR1 210344Z 15005KT 30/17 A30 RMK A01 T02990168  RH  045%=      5-min Rain = 0
KCR1 210345Z 15006KT 30/17 A30 RMK A01 T02990168  RH  045%=      5-min Rain = 0
KCR1 210346Z 15005KT 30/17 A30 RMK A01 T02980169  RH  046%=      5-min Rain = 0
KCR1 210347Z 15005KT 30/17 A30 RMK A01 T02980169  RH  046%=      5-min Rain = 0
KCR1 210348Z 14006KT 30/17 A30 RMK A01 T02980168  RH  046%=      5-min Rain = 0
KCR1 210349Z 14006KT 30/17 A30 RMK A01 T02970168  RH  046%=      5-min Rain = 0
KCR1 210350Z 15006KT 30/17 A30 RMK A01 T02960168  RH  046%=      5-min Rain = 0
KCR1 210351Z 15006KT 30/17 A30 RMK A01 T02950168  RH  046%=      5-min Rain = 0
KCR1 210352Z 15006KT 30/17 A30 RMK A01 T02950168  RH  046%=      5-min Rain = 0
KCR1 210353Z 15006KT 29/17 A30 RMK A01 T02940168  RH  047%=      5-min Rain = 0
KCR1 210354Z 15006KT 29/17 A30 RMK A01 T02930167  RH  047%=      5-min Rain = 0
KCR1 210355Z 14005KT 29/17 A30 RMK A01 T02930168  RH  047%=      5-min Rain = 0
KCR1 210356Z 14005KT 29/17 A3001 RMK A01 T02920167  RH  047%=      5-min Rain = 0
KCR1 210357Z 14005KT 29/17 A3001 RMK A01 T02920168  RH  047%=      5-min Rain = 0
KCR1 210358Z 14005KT 29/17 A3001 RMK A01 T02920168  RH  047%=      5-min Rain = 0
KCR1 210359Z 14005KT 29/17 A30 RMK A01 T02920168  RH  047%=      5-min Rain = 0
KCR1 210400Z 14005KT 29/17 A30 RMK A01 T02920168  RH  047%=      5-min Rain = 0
KCR1 210401Z 14005KT 29/17 A30 RMK A01 T02910168  RH  047%=      5-min Rain = 0
KCR1 210402Z 14006KT 29/17 A30 RMK A01 T02910168  RH  048%=      5-min Rain = 0
KCR1 210403Z 14005KT 29/17 A30 RMK A01 T02900168  RH  048%=      5-min Rain = 0
KCR1 210404Z 14006KT 29/17 A30 RMK A01 T02900168  RH  048%=      5-min Rain = 0
KCR1 210405Z 14006KT 29/17 A30 RMK A01 T02900168  RH  048%=      5-min Rain = 0
KCR1 210406Z 14006KT 29/17 A30 RMK A01 T02890169  RH  048%=      5-min Rain = 0
KCR1 210407Z 14005KT 29/17 A30 RMK A01 T02890169  RH  048%=      5-min Rain = 0
KCR1 210408Z 14005KT 29/17 A30 RMK A01 T02890169  RH  048%=      5-min Rain = 0
KCR1 210409Z 14005KT 29/17 A30 RMK A01 T02880169  RH  048%=      5-min Rain = 0
KCR1 210410Z 15005KT 29/17 A30 RMK A01 T02880169  RH  048%=      5-min Rain = 0
KCR1 210411Z 14005KT 29/17 A30 RMK A01 T02880169  RH  049%=      5-min Rain = 0
KCR1 210412Z 14005KT 29/17 A30 RMK A01 T02870169  RH  049%=      5-min Rain = 0
KCR1 210413Z 14006KT 29/17 A30 RMK A01 T02870169  RH  049%=      5-min Rain = 0
KCR1 210414Z 14006KT 29/17 A30 RMK A01 T02870169  RH  049%=      5-min Rain = 0
KCR1 210415Z 14006KT 29/17 A30 RMK A01 T02880169  RH  049%=      5-min Rain = 0
KCR1 210416Z 14006KT 29/17 A30 RMK A01 T02880169  RH  049%=      5-min Rain = 0
KCR1 210417Z 14006KT 29/17 A30 RMK A01 T02870169  RH  049%=      5-min Rain = 0
KCR1 210418Z 14006KT 29/17 A30 RMK A01 T02870169  RH  049%=      5-min Rain = 0
KCR1 210419Z 14006KT 29/17 A30 RMK A01 T02870169  RH  049%=      5-min Rain = 0
KCR1 210420Z 14006KT 29/17 A30 RMK A01 T02870169  RH  049%=      5-min Rain = 0
KCR1 210421Z 14006KT 29/17 A30 RMK A01 T02870169  RH  049%=      5-min Rain = 0
KCR1 210422Z 14006KT 29/17 A30 RMK A01 T02870169  RH  049%=      5-min Rain = 0
KCR1 210423Z 14005KT 29/17 A30 RMK A01 T02870169  RH  049%=      5-min Rain = 0
KCR1 210424Z 14005KT 29/17 A30 RMK A01 T02870169  RH  049%=      5-min Rain = 0
KCR1 210425Z 14005KT 29/17 A30 RMK A01 T02870170  RH  049%=      5-min Rain = 0
KCR1 210426Z 14005KT 29/17 A30 RMK A01 T02870170  RH  049%=      5-min Rain = 0
KCR1 210427Z 14005KT 29/17 A30 RMK A01 T02870170  RH  049%=      5-min Rain = 0
KCR1 210428Z 14006KT 29/17 A30 RMK A01 T02870170  RH  049%=      5-min Rain = 0
KCR1 210429Z 14006KT 29/17 A30 RMK A01 T02870170  RH  049%=      5-min Rain = 0
KCR1 210430Z 14006KT 29/17 A30 RMK A01 T02870170  RH  049%=      5-min Rain = 0
KCR1 210431Z 14006KT 29/17 A30 RMK A01 T02870170  RH  049%=      5-min Rain = 0
KCR1 210432Z 14006KT 29/17 A30 RMK A01 T02870170  RH  049%=      5-min Rain = 0
KCR1 210433Z 14006KT 29/17 A30 RMK A01 T02860170  RH  049%=      5-min Rain = 0
KCR1 210434Z 14006KT 29/17 A30 RMK A01 T02870170  RH  049%=      5-min Rain = 0
KCR1 210435Z 14006KT 29/17 A30 RMK A01 T02870171  RH  050%=      5-min Rain = 0
KCR1 210436Z 14006KT 29/17 A30 RMK A01 T02860171  RH  050%=      5-min Rain = 0
KCR1 210437Z 14006KT 29/17 A30 RMK A01 T02860171  RH  050%=      5-min Rain = 0
KCR1 210438Z 14006KT 29/17 A30 RMK A01 T02860171  RH  050%=      5-min Rain = 0
KCR1 210439Z 14006KT 29/17 A30 RMK A01 T02860171  RH  050%=      5-min Rain = 0
KCR1 210440Z 14006KT 29/17 A30 RMK A01 T02860171  RH  050%=      5-min Rain = 0
KCR1 210441Z 14006KT 29/17 A30 RMK A01 T02860172  RH  050%=      5-min Rain = 0
KCR1 210442Z 14006KT 29/17 A30 RMK A01 T02860172  RH  050%=      5-min Rain = 0
KCR1 210443Z 14006KT 29/17 A30 RMK A01 T02860172  RH  050%=      5-min Rain = 0
KCR1 210444Z 15006KT 29/17 A30 RMK A01 T02860172  RH  050%=      5-min Rain = 0
KCR1 210445Z 14006KT 29/17 A30 RMK A01 T02860172  RH  050%=      5-min Rain = 0
KCR1 210446Z 14006KT 29/17 A30 RMK A01 T02860172  RH  050%=      5-min Rain = 0
KCR1 210447Z 14005KT 29/17 A30 RMK A01 T02850172  RH  050%=      5-min Rain = 0
KCR1 210448Z 15006KT 29/17 A30 RMK A01 T02850172  RH  050%=      5-min Rain = 0
KCR1 210449Z 15005KT 29/17 A30 RMK A01 T02850173  RH  051%=      5-min Rain = 0
KCR1 210450Z 15005KT 29/17 A30 RMK A01 T02850173  RH  051%=      5-min Rain = 0
KCR1 210451Z 15005KT 29/17 A30 RMK A01 T02850173  RH  051%=      5-min Rain = 0
KCR1 210452Z 15005KT 29/17 A30 RMK A01 T02850173  RH  051%=      5-min Rain = 0
KCR1 210453Z 15005KT 28/17 A30 RMK A01 T02840173  RH  051%=      5-min Rain = 0
KCR1 210454Z 14005KT 28/17 A30 RMK A01 T02840173  RH  051%=      5-min Rain = 0
KCR1 210455Z 14005KT 28/17 A30 RMK A01 T02840173  RH  051%=      5-min Rain = 0
KCR1 210456Z 14006KT 28/17 A30 RMK A01 T02830173  RH  051%=      5-min Rain = 0
KCR1 210457Z 14006KT 28/17 A30 RMK A01 T02820173  RH  052%=      5-min Rain = 0
KCR1 210458Z 14006KT 28/17 A30 RMK A01 T02820173  RH  052%=      5-min Rain = 0
KCR1 210459Z 14006KT 28/17 A30 RMK A01 T02820173  RH  052%=      5-min Rain = 0

Page generated in 0.0724 seconds.